<?xml version="1.0" encoding="UTF-8" standalone="no" ?>
<gpx xmlns="http://www.topografix.com/GPX/1/1" xmlns:xsi="http://www.w3.org/2001/XMLSchema-instance" xsi:schemaLocation="http://www.topografix.com/GPX/1/1 http://www.topografix.com/GPX/1/1/gpx.xsd" version="1.1" creator="VisuGPX - https://www.visugpx.com">
  <metadata>
    <name>Depuis le belvédère jusq'à la tête de la grave</name>
    <desc><![CDATA[Balade sur les contreforts du Ventoux entre le belvédère et la tête de la grave.]]></desc>
  </metadata>
  <trk>
    <name><![CDATA[2017-05-22 14:17:58]]></name>
    <trkseg>
      <trkpt lat="44.14101" lon="5.3441">
        <ele>1323.39</ele>
        <time>2017-05-22T07:31:56Z</time>
      </trkpt>
      <trkpt lat="44.14101" lon="5.3441">
        <ele>1323.39</ele>
        <time>2017-05-22T07:31:57Z</time>
      </trkpt>
      <trkpt lat="44.14101" lon="5.34412">
        <ele>1323.39</ele>
        <time>2017-05-22T07:32:29Z</time>
      </trkpt>
      <trkpt lat="44.14103" lon="5.34416">
        <ele>1323.39</ele>
        <time>2017-05-22T07:32:43Z</time>
      </trkpt>
      <trkpt lat="44.14103" lon="5.34418">
        <ele>1323.39</ele>
        <time>2017-05-22T07:33:08Z</time>
      </trkpt>
      <trkpt lat="44.14103" lon="5.34414">
        <ele>1323.39</ele>
        <time>2017-05-22T07:33:26Z</time>
      </trkpt>
      <trkpt lat="44.14097" lon="5.34421">
        <ele>1322.43</ele>
        <time>2017-05-22T07:33:43Z</time>
      </trkpt>
      <trkpt lat="44.14096" lon="5.34427">
        <ele>1322.43</ele>
        <time>2017-05-22T07:33:55Z</time>
      </trkpt>
      <trkpt lat="44.14096" lon="5.3443">
        <ele>1319.07</ele>
        <time>2017-05-22T07:33:59Z</time>
      </trkpt>
      <trkpt lat="44.14096" lon="5.3443">
        <ele>1327.24</ele>
        <time>2017-05-22T07:34:00Z</time>
      </trkpt>
      <trkpt lat="44.14096" lon="5.3443">
        <ele>1322.91</ele>
        <time>2017-05-22T07:34:01Z</time>
      </trkpt>
      <trkpt lat="44.14096" lon="5.34433">
        <ele>1322.91</ele>
        <time>2017-05-22T07:34:30Z</time>
      </trkpt>
      <trkpt lat="44.14098" lon="5.34426">
        <ele>1322.91</ele>
        <time>2017-05-22T07:34:41Z</time>
      </trkpt>
      <trkpt lat="44.14101" lon="5.34416">
        <ele>1322.91</ele>
        <time>2017-05-22T07:34:52Z</time>
      </trkpt>
      <trkpt lat="44.14106" lon="5.3441">
        <ele>1322.91</ele>
        <time>2017-05-22T07:35:05Z</time>
      </trkpt>
      <trkpt lat="44.14109" lon="5.34402">
        <ele>1322.43</ele>
        <time>2017-05-22T07:35:19Z</time>
      </trkpt>
      <trkpt lat="44.14116" lon="5.34393">
        <ele>1323.87</ele>
        <time>2017-05-22T07:35:33Z</time>
      </trkpt>
      <trkpt lat="44.14119" lon="5.34388">
        <ele>1323.87</ele>
        <time>2017-05-22T07:35:56Z</time>
      </trkpt>
      <trkpt lat="44.14125" lon="5.34384">
        <ele>1324.35</ele>
        <time>2017-05-22T07:36:31Z</time>
      </trkpt>
      <trkpt lat="44.14138" lon="5.34382">
        <ele>1324.83</ele>
        <time>2017-05-22T07:36:46Z</time>
      </trkpt>
      <trkpt lat="44.14147" lon="5.34375">
        <ele>1325.8</ele>
        <time>2017-05-22T07:37:00Z</time>
      </trkpt>
      <trkpt lat="44.14157" lon="5.34372">
        <ele>1326.28</ele>
        <time>2017-05-22T07:37:24Z</time>
      </trkpt>
      <trkpt lat="44.1417" lon="5.34369">
        <ele>1327.72</ele>
        <time>2017-05-22T07:37:41Z</time>
      </trkpt>
      <trkpt lat="44.14184" lon="5.34363">
        <ele>1329.16</ele>
        <time>2017-05-22T07:37:59Z</time>
      </trkpt>
      <trkpt lat="44.142" lon="5.34358">
        <ele>1330.6</ele>
        <time>2017-05-22T07:38:15Z</time>
      </trkpt>
      <trkpt lat="44.14214" lon="5.34352">
        <ele>1332.52</ele>
        <time>2017-05-22T07:38:33Z</time>
      </trkpt>
      <trkpt lat="44.14215" lon="5.34349">
        <ele>1333.01</ele>
        <time>2017-05-22T07:38:46Z</time>
      </trkpt>
      <trkpt lat="44.14218" lon="5.34344">
        <ele>1333.49</ele>
        <time>2017-05-22T07:39:06Z</time>
      </trkpt>
      <trkpt lat="44.14216" lon="5.34345">
        <ele>1333.49</ele>
        <time>2017-05-22T07:39:26Z</time>
      </trkpt>
      <trkpt lat="44.14217" lon="5.34344">
        <ele>1333.49</ele>
        <time>2017-05-22T07:39:49Z</time>
      </trkpt>
      <trkpt lat="44.14222" lon="5.34338">
        <ele>1333.97</ele>
        <time>2017-05-22T07:40:10Z</time>
      </trkpt>
      <trkpt lat="44.1423" lon="5.34325">
        <ele>1335.41</ele>
        <time>2017-05-22T07:40:25Z</time>
      </trkpt>
      <trkpt lat="44.14239" lon="5.3431">
        <ele>1337.33</ele>
        <time>2017-05-22T07:40:42Z</time>
      </trkpt>
      <trkpt lat="44.14248" lon="5.34299">
        <ele>1338.29</ele>
        <time>2017-05-22T07:40:56Z</time>
      </trkpt>
      <trkpt lat="44.14254" lon="5.34295">
        <ele>1339.25</ele>
        <time>2017-05-22T07:41:14Z</time>
      </trkpt>
      <trkpt lat="44.14252" lon="5.3429">
        <ele>1339.25</ele>
        <time>2017-05-22T07:41:35Z</time>
      </trkpt>
      <trkpt lat="44.14251" lon="5.34288">
        <ele>1339.73</ele>
        <time>2017-05-22T07:42:00Z</time>
      </trkpt>
      <trkpt lat="44.14258" lon="5.34282">
        <ele>1340.22</ele>
        <time>2017-05-22T07:42:18Z</time>
      </trkpt>
      <trkpt lat="44.1427" lon="5.34268">
        <ele>1341.66</ele>
        <time>2017-05-22T07:42:33Z</time>
      </trkpt>
      <trkpt lat="44.14281" lon="5.34253">
        <ele>1342.62</ele>
        <time>2017-05-22T07:42:48Z</time>
      </trkpt>
      <trkpt lat="44.14292" lon="5.34238">
        <ele>1344.54</ele>
        <time>2017-05-22T07:43:03Z</time>
      </trkpt>
      <trkpt lat="44.14303" lon="5.34226">
        <ele>1345.98</ele>
        <time>2017-05-22T07:43:19Z</time>
      </trkpt>
      <trkpt lat="44.14315" lon="5.34219">
        <ele>1346.94</ele>
        <time>2017-05-22T07:43:32Z</time>
      </trkpt>
      <trkpt lat="44.14329" lon="5.34214">
        <ele>1348.87</ele>
        <time>2017-05-22T07:43:48Z</time>
      </trkpt>
      <trkpt lat="44.14344" lon="5.34209">
        <ele>1351.27</ele>
        <time>2017-05-22T07:44:05Z</time>
      </trkpt>
      <trkpt lat="44.1436" lon="5.34203">
        <ele>1353.67</ele>
        <time>2017-05-22T07:44:22Z</time>
      </trkpt>
      <trkpt lat="44.14374" lon="5.34198">
        <ele>1355.6</ele>
        <time>2017-05-22T07:44:40Z</time>
      </trkpt>
      <trkpt lat="44.14388" lon="5.34191">
        <ele>1357.04</ele>
        <time>2017-05-22T07:44:57Z</time>
      </trkpt>
      <trkpt lat="44.14405" lon="5.34179">
        <ele>1358.96</ele>
        <time>2017-05-22T07:45:17Z</time>
      </trkpt>
      <trkpt lat="44.14416" lon="5.3417">
        <ele>1360.88</ele>
        <time>2017-05-22T07:45:33Z</time>
      </trkpt>
      <trkpt lat="44.14426" lon="5.34157">
        <ele>1361.36</ele>
        <time>2017-05-22T07:45:50Z</time>
      </trkpt>
      <trkpt lat="44.14439" lon="5.3414">
        <ele>1362.81</ele>
        <time>2017-05-22T07:46:09Z</time>
      </trkpt>
      <trkpt lat="44.14448" lon="5.3413">
        <ele>1364.25</ele>
        <time>2017-05-22T07:46:23Z</time>
      </trkpt>
      <trkpt lat="44.14459" lon="5.34115">
        <ele>1365.21</ele>
        <time>2017-05-22T07:46:39Z</time>
      </trkpt>
      <trkpt lat="44.14471" lon="5.34097">
        <ele>1366.17</ele>
        <time>2017-05-22T07:46:55Z</time>
      </trkpt>
      <trkpt lat="44.14481" lon="5.34085">
        <ele>1367.13</ele>
        <time>2017-05-22T07:47:11Z</time>
      </trkpt>
      <trkpt lat="44.14493" lon="5.34061">
        <ele>1369.05</ele>
        <time>2017-05-22T07:47:32Z</time>
      </trkpt>
      <trkpt lat="44.14496" lon="5.34054">
        <ele>1369.05</ele>
        <time>2017-05-22T07:47:39Z</time>
      </trkpt>
      <trkpt lat="44.14508" lon="5.34042">
        <ele>1370.02</ele>
        <time>2017-05-22T07:47:56Z</time>
      </trkpt>
      <trkpt lat="44.14523" lon="5.34035">
        <ele>1370.98</ele>
        <time>2017-05-22T07:48:14Z</time>
      </trkpt>
      <trkpt lat="44.14537" lon="5.34031">
        <ele>1371.94</ele>
        <time>2017-05-22T07:48:29Z</time>
      </trkpt>
      <trkpt lat="44.14555" lon="5.34027">
        <ele>1373.38</ele>
        <time>2017-05-22T07:48:48Z</time>
      </trkpt>
      <trkpt lat="44.14569" lon="5.34024">
        <ele>1375.3</ele>
        <time>2017-05-22T07:48:46Z</time>
      </trkpt>
      <trkpt lat="44.1458" lon="5.34018">
        <ele>1376.75</ele>
        <time>2017-05-22T07:49:01Z</time>
      </trkpt>
      <trkpt lat="44.14591" lon="5.34009">
        <ele>1379.15</ele>
        <time>2017-05-22T07:49:17Z</time>
      </trkpt>
      <trkpt lat="44.14604" lon="5.34003">
        <ele>1381.55</ele>
        <time>2017-05-22T07:49:33Z</time>
      </trkpt>
      <trkpt lat="44.14616" lon="5.33999">
        <ele>1383.47</ele>
        <time>2017-05-22T07:49:49Z</time>
      </trkpt>
      <trkpt lat="44.14626" lon="5.34002">
        <ele>1385.4</ele>
        <time>2017-05-22T07:50:06Z</time>
      </trkpt>
      <trkpt lat="44.1464" lon="5.34">
        <ele>1387.32</ele>
        <time>2017-05-22T07:50:22Z</time>
      </trkpt>
      <trkpt lat="44.14651" lon="5.34007">
        <ele>1390.2</ele>
        <time>2017-05-22T07:50:38Z</time>
      </trkpt>
      <trkpt lat="44.14659" lon="5.34023">
        <ele>1392.13</ele>
        <time>2017-05-22T07:50:55Z</time>
      </trkpt>
      <trkpt lat="44.14664" lon="5.34034">
        <ele>1392.61</ele>
        <time>2017-05-22T07:51:15Z</time>
      </trkpt>
      <trkpt lat="44.14662" lon="5.34035">
        <ele>1393.09</ele>
        <time>2017-05-22T07:51:43Z</time>
      </trkpt>
      <trkpt lat="44.14665" lon="5.34035">
        <ele>1393.09</ele>
        <time>2017-05-22T07:51:56Z</time>
      </trkpt>
      <trkpt lat="44.1467" lon="5.34037">
        <ele>1393.09</ele>
        <time>2017-05-22T07:52:24Z</time>
      </trkpt>
      <trkpt lat="44.14673" lon="5.34034">
        <ele>1393.09</ele>
        <time>2017-05-22T07:52:59Z</time>
      </trkpt>
      <trkpt lat="44.1467" lon="5.34033">
        <ele>1393.57</ele>
        <time>2017-05-22T07:53:25Z</time>
      </trkpt>
      <trkpt lat="44.14669" lon="5.34037">
        <ele>1393.57</ele>
        <time>2017-05-22T07:54:00Z</time>
      </trkpt>
      <trkpt lat="44.1467" lon="5.34039">
        <ele>1393.57</ele>
        <time>2017-05-22T07:54:32Z</time>
      </trkpt>
      <trkpt lat="44.1467" lon="5.3405">
        <ele>1394.05</ele>
        <time>2017-05-22T07:54:53Z</time>
      </trkpt>
      <trkpt lat="44.14678" lon="5.34064">
        <ele>1395.49</ele>
        <time>2017-05-22T07:55:10Z</time>
      </trkpt>
      <trkpt lat="44.14692" lon="5.34079">
        <ele>1396.93</ele>
        <time>2017-05-22T07:55:30Z</time>
      </trkpt>
      <trkpt lat="44.14702" lon="5.34091">
        <ele>1397.89</ele>
        <time>2017-05-22T07:55:48Z</time>
      </trkpt>
      <trkpt lat="44.14712" lon="5.34102">
        <ele>1399.34</ele>
        <time>2017-05-22T07:56:03Z</time>
      </trkpt>
      <trkpt lat="44.14725" lon="5.34114">
        <ele>1399.82</ele>
        <time>2017-05-22T07:56:19Z</time>
      </trkpt>
      <trkpt lat="44.14741" lon="5.3412">
        <ele>1400.78</ele>
        <time>2017-05-22T07:56:37Z</time>
      </trkpt>
      <trkpt lat="44.14759" lon="5.34121">
        <ele>1402.22</ele>
        <time>2017-05-22T07:56:57Z</time>
      </trkpt>
      <trkpt lat="44.14777" lon="5.34115">
        <ele>1403.66</ele>
        <time>2017-05-22T07:57:17Z</time>
      </trkpt>
      <trkpt lat="44.14791" lon="5.34108">
        <ele>1405.1</ele>
        <time>2017-05-22T07:57:35Z</time>
      </trkpt>
      <trkpt lat="44.14807" lon="5.34105">
        <ele>1406.55</ele>
        <time>2017-05-22T07:57:54Z</time>
      </trkpt>
      <trkpt lat="44.14822" lon="5.34099">
        <ele>1407.99</ele>
        <time>2017-05-22T07:58:11Z</time>
      </trkpt>
      <trkpt lat="44.14839" lon="5.34092">
        <ele>1409.43</ele>
        <time>2017-05-22T07:58:28Z</time>
      </trkpt>
      <trkpt lat="44.14855" lon="5.34085">
        <ele>1410.39</ele>
        <time>2017-05-22T07:58:47Z</time>
      </trkpt>
      <trkpt lat="44.14868" lon="5.34077">
        <ele>1411.83</ele>
        <time>2017-05-22T07:59:04Z</time>
      </trkpt>
      <trkpt lat="44.14883" lon="5.3407">
        <ele>1413.28</ele>
        <time>2017-05-22T07:59:25Z</time>
      </trkpt>
      <trkpt lat="44.14898" lon="5.34062">
        <ele>1415.2</ele>
        <time>2017-05-22T07:59:42Z</time>
      </trkpt>
      <trkpt lat="44.14913" lon="5.34055">
        <ele>1416.16</ele>
        <time>2017-05-22T07:59:58Z</time>
      </trkpt>
      <trkpt lat="44.14924" lon="5.34048">
        <ele>1418.08</ele>
        <time>2017-05-22T08:00:14Z</time>
      </trkpt>
      <trkpt lat="44.14936" lon="5.34042">
        <ele>1419.52</ele>
        <time>2017-05-22T08:00:30Z</time>
      </trkpt>
      <trkpt lat="44.1495" lon="5.34035">
        <ele>1421.45</ele>
        <time>2017-05-22T08:00:49Z</time>
      </trkpt>
      <trkpt lat="44.14963" lon="5.34029">
        <ele>1423.85</ele>
        <time>2017-05-22T08:01:06Z</time>
      </trkpt>
      <trkpt lat="44.14975" lon="5.34024">
        <ele>1425.77</ele>
        <time>2017-05-22T08:01:22Z</time>
      </trkpt>
      <trkpt lat="44.14987" lon="5.34021">
        <ele>1428.18</ele>
        <time>2017-05-22T08:01:39Z</time>
      </trkpt>
      <trkpt lat="44.14996" lon="5.34018">
        <ele>1430.58</ele>
        <time>2017-05-22T08:01:56Z</time>
      </trkpt>
      <trkpt lat="44.15009" lon="5.34014">
        <ele>1432.98</ele>
        <time>2017-05-22T08:02:15Z</time>
      </trkpt>
      <trkpt lat="44.15022" lon="5.34015">
        <ele>1434.91</ele>
        <time>2017-05-22T08:02:32Z</time>
      </trkpt>
      <trkpt lat="44.15037" lon="5.34021">
        <ele>1436.83</ele>
        <time>2017-05-22T08:02:49Z</time>
      </trkpt>
      <trkpt lat="44.1505" lon="5.34021">
        <ele>1438.27</ele>
        <time>2017-05-22T08:03:07Z</time>
      </trkpt>
      <trkpt lat="44.15061" lon="5.34021">
        <ele>1439.71</ele>
        <time>2017-05-22T08:03:23Z</time>
      </trkpt>
      <trkpt lat="44.15061" lon="5.34028">
        <ele>1440.19</ele>
        <time>2017-05-22T08:03:56Z</time>
      </trkpt>
      <trkpt lat="44.15059" lon="5.34034">
        <ele>1440.19</ele>
        <time>2017-05-22T08:04:33Z</time>
      </trkpt>
      <trkpt lat="44.15059" lon="5.34031">
        <ele>1440.67</ele>
        <time>2017-05-22T08:05:08Z</time>
      </trkpt>
      <trkpt lat="44.15059" lon="5.34026">
        <ele>1440.67</ele>
        <time>2017-05-22T08:05:37Z</time>
      </trkpt>
      <trkpt lat="44.15066" lon="5.34026">
        <ele>1442.11</ele>
        <time>2017-05-22T08:05:50Z</time>
      </trkpt>
      <trkpt lat="44.15082" lon="5.34029">
        <ele>1443.56</ele>
        <time>2017-05-22T08:06:05Z</time>
      </trkpt>
      <trkpt lat="44.15093" lon="5.3403">
        <ele>1445</ele>
        <time>2017-05-22T08:06:21Z</time>
      </trkpt>
      <trkpt lat="44.15105" lon="5.34028">
        <ele>1446.92</ele>
        <time>2017-05-22T08:06:38Z</time>
      </trkpt>
      <trkpt lat="44.15121" lon="5.34029">
        <ele>1447.4</ele>
        <time>2017-05-22T08:06:54Z</time>
      </trkpt>
      <trkpt lat="44.15138" lon="5.34038">
        <ele>1448.36</ele>
        <time>2017-05-22T08:07:13Z</time>
      </trkpt>
      <trkpt lat="44.15149" lon="5.34045">
        <ele>1448.36</ele>
        <time>2017-05-22T08:07:30Z</time>
      </trkpt>
      <trkpt lat="44.15158" lon="5.3405">
        <ele>1448.36</ele>
        <time>2017-05-22T08:07:43Z</time>
      </trkpt>
      <trkpt lat="44.15169" lon="5.34054">
        <ele>1448.36</ele>
        <time>2017-05-22T08:07:57Z</time>
      </trkpt>
      <trkpt lat="44.15178" lon="5.34054">
        <ele>1448.36</ele>
        <time>2017-05-22T08:08:10Z</time>
      </trkpt>
      <trkpt lat="44.15188" lon="5.34055">
        <ele>1448.36</ele>
        <time>2017-05-22T08:08:25Z</time>
      </trkpt>
      <trkpt lat="44.15195" lon="5.34059">
        <ele>1448.84</ele>
        <time>2017-05-22T08:08:46Z</time>
      </trkpt>
      <trkpt lat="44.15196" lon="5.34064">
        <ele>1448.84</ele>
        <time>2017-05-22T08:09:16Z</time>
      </trkpt>
      <trkpt lat="44.15197" lon="5.34065">
        <ele>1450.77</ele>
        <time>2017-05-22T08:09:18Z</time>
      </trkpt>
      <trkpt lat="44.15197" lon="5.34064">
        <ele>1448.84</ele>
        <time>2017-05-22T08:09:20Z</time>
      </trkpt>
      <trkpt lat="44.15209" lon="5.34063">
        <ele>1448.84</ele>
        <time>2017-05-22T08:09:36Z</time>
      </trkpt>
      <trkpt lat="44.15216" lon="5.34064">
        <ele>1450.29</ele>
        <time>2017-05-22T08:09:47Z</time>
      </trkpt>
      <trkpt lat="44.15228" lon="5.34063">
        <ele>1450.77</ele>
        <time>2017-05-22T08:10:04Z</time>
      </trkpt>
      <trkpt lat="44.15243" lon="5.34064">
        <ele>1451.25</ele>
        <time>2017-05-22T08:10:21Z</time>
      </trkpt>
      <trkpt lat="44.15257" lon="5.34065">
        <ele>1451.73</ele>
        <time>2017-05-22T08:10:37Z</time>
      </trkpt>
      <trkpt lat="44.15273" lon="5.34064">
        <ele>1452.21</ele>
        <time>2017-05-22T08:10:56Z</time>
      </trkpt>
      <trkpt lat="44.15289" lon="5.34061">
        <ele>1453.17</ele>
        <time>2017-05-22T08:11:14Z</time>
      </trkpt>
      <trkpt lat="44.15304" lon="5.3406">
        <ele>1453.17</ele>
        <time>2017-05-22T08:11:30Z</time>
      </trkpt>
      <trkpt lat="44.15311" lon="5.34056">
        <ele>1454.13</ele>
        <time>2017-05-22T08:11:45Z</time>
      </trkpt>
      <trkpt lat="44.15322" lon="5.34056">
        <ele>1454.61</ele>
        <time>2017-05-22T08:11:59Z</time>
      </trkpt>
      <trkpt lat="44.15325" lon="5.3406">
        <ele>1454.61</ele>
        <time>2017-05-22T08:12:22Z</time>
      </trkpt>
      <trkpt lat="44.15327" lon="5.34061">
        <ele>1454.61</ele>
        <time>2017-05-22T08:12:41Z</time>
      </trkpt>
      <trkpt lat="44.15328" lon="5.34061">
        <ele>1454.61</ele>
        <time>2017-05-22T08:13:06Z</time>
      </trkpt>
      <trkpt lat="44.15327" lon="5.34053">
        <ele>1454.61</ele>
        <time>2017-05-22T08:13:35Z</time>
      </trkpt>
      <trkpt lat="44.15327" lon="5.34052">
        <ele>1455.09</ele>
        <time>2017-05-22T08:13:59Z</time>
      </trkpt>
      <trkpt lat="44.15335" lon="5.34051">
        <ele>1455.09</ele>
        <time>2017-05-22T08:14:15Z</time>
      </trkpt>
      <trkpt lat="44.15343" lon="5.34051">
        <ele>1455.57</ele>
        <time>2017-05-22T08:14:29Z</time>
      </trkpt>
      <trkpt lat="44.15354" lon="5.34048">
        <ele>1456.05</ele>
        <time>2017-05-22T08:14:45Z</time>
      </trkpt>
      <trkpt lat="44.15366" lon="5.34043">
        <ele>1456.53</ele>
        <time>2017-05-22T08:15:04Z</time>
      </trkpt>
      <trkpt lat="44.15379" lon="5.34037">
        <ele>1457.02</ele>
        <time>2017-05-22T08:15:23Z</time>
      </trkpt>
      <trkpt lat="44.15392" lon="5.34028">
        <ele>1457.5</ele>
        <time>2017-05-22T08:15:42Z</time>
      </trkpt>
      <trkpt lat="44.15406" lon="5.34023">
        <ele>1457.98</ele>
        <time>2017-05-22T08:15:58Z</time>
      </trkpt>
      <trkpt lat="44.15413" lon="5.34023">
        <ele>1457.98</ele>
        <time>2017-05-22T08:16:16Z</time>
      </trkpt>
      <trkpt lat="44.15424" lon="5.34016">
        <ele>1458.46</ele>
        <time>2017-05-22T08:16:32Z</time>
      </trkpt>
      <trkpt lat="44.15436" lon="5.34009">
        <ele>1458.94</ele>
        <time>2017-05-22T08:16:46Z</time>
      </trkpt>
      <trkpt lat="44.15449" lon="5.34003">
        <ele>1458.94</ele>
        <time>2017-05-22T08:17:01Z</time>
      </trkpt>
      <trkpt lat="44.15466" lon="5.33996">
        <ele>1459.42</ele>
        <time>2017-05-22T08:17:21Z</time>
      </trkpt>
      <trkpt lat="44.15481" lon="5.33991">
        <ele>1459.42</ele>
        <time>2017-05-22T08:17:39Z</time>
      </trkpt>
      <trkpt lat="44.15499" lon="5.33987">
        <ele>1459.42</ele>
        <time>2017-05-22T08:17:58Z</time>
      </trkpt>
      <trkpt lat="44.15511" lon="5.33983">
        <ele>1460.38</ele>
        <time>2017-05-22T08:18:14Z</time>
      </trkpt>
      <trkpt lat="44.15523" lon="5.3398">
        <ele>1460.38</ele>
        <time>2017-05-22T08:18:28Z</time>
      </trkpt>
      <trkpt lat="44.15538" lon="5.33978">
        <ele>1460.38</ele>
        <time>2017-05-22T08:18:45Z</time>
      </trkpt>
      <trkpt lat="44.15546" lon="5.33979">
        <ele>1460.38</ele>
        <time>2017-05-22T08:18:59Z</time>
      </trkpt>
      <trkpt lat="44.15562" lon="5.33979">
        <ele>1460.86</ele>
        <time>2017-05-22T08:19:16Z</time>
      </trkpt>
      <trkpt lat="44.15576" lon="5.33982">
        <ele>1461.34</ele>
        <time>2017-05-22T08:19:32Z</time>
      </trkpt>
      <trkpt lat="44.1559" lon="5.33988">
        <ele>1461.34</ele>
        <time>2017-05-22T08:19:48Z</time>
      </trkpt>
      <trkpt lat="44.15602" lon="5.3399">
        <ele>1462.3</ele>
        <time>2017-05-22T08:20:03Z</time>
      </trkpt>
      <trkpt lat="44.15614" lon="5.33996">
        <ele>1462.3</ele>
        <time>2017-05-22T08:20:20Z</time>
      </trkpt>
      <trkpt lat="44.15624" lon="5.34001">
        <ele>1461.82</ele>
        <time>2017-05-22T08:20:35Z</time>
      </trkpt>
      <trkpt lat="44.15633" lon="5.34011">
        <ele>1462.3</ele>
        <time>2017-05-22T08:20:52Z</time>
      </trkpt>
      <trkpt lat="44.15638" lon="5.3402">
        <ele>1460.86</ele>
        <time>2017-05-22T08:21:08Z</time>
      </trkpt>
      <trkpt lat="44.15647" lon="5.34027">
        <ele>1460.86</ele>
        <time>2017-05-22T08:21:23Z</time>
      </trkpt>
      <trkpt lat="44.15651" lon="5.34036">
        <ele>1459.9</ele>
        <time>2017-05-22T08:21:40Z</time>
      </trkpt>
      <trkpt lat="44.15654" lon="5.34045">
        <ele>1458.94</ele>
        <time>2017-05-22T08:21:55Z</time>
      </trkpt>
      <trkpt lat="44.15656" lon="5.34053">
        <ele>1458.46</ele>
        <time>2017-05-22T08:22:11Z</time>
      </trkpt>
      <trkpt lat="44.15657" lon="5.34056">
        <ele>1457.98</ele>
        <time>2017-05-22T08:22:29Z</time>
      </trkpt>
      <trkpt lat="44.15656" lon="5.34056">
        <ele>1458.94</ele>
        <time>2017-05-22T08:22:49Z</time>
      </trkpt>
      <trkpt lat="44.15655" lon="5.34058">
        <ele>1459.42</ele>
        <time>2017-05-22T08:23:07Z</time>
      </trkpt>
      <trkpt lat="44.15661" lon="5.34064">
        <ele>1457.02</ele>
        <time>2017-05-22T08:23:20Z</time>
      </trkpt>
      <trkpt lat="44.15667" lon="5.34077">
        <ele>1454.13</ele>
        <time>2017-05-22T08:23:34Z</time>
      </trkpt>
      <trkpt lat="44.15672" lon="5.3409">
        <ele>1452.69</ele>
        <time>2017-05-22T08:23:50Z</time>
      </trkpt>
      <trkpt lat="44.15671" lon="5.34093">
        <ele>1452.21</ele>
        <time>2017-05-22T08:24:04Z</time>
      </trkpt>
      <trkpt lat="44.15672" lon="5.34097">
        <ele>1452.21</ele>
        <time>2017-05-22T08:24:08Z</time>
      </trkpt>
      <trkpt lat="44.15683" lon="5.34113">
        <ele>1449.81</ele>
        <time>2017-05-22T08:24:24Z</time>
      </trkpt>
      <trkpt lat="44.1569" lon="5.34119">
        <ele>1448.36</ele>
        <time>2017-05-22T08:24:38Z</time>
      </trkpt>
      <trkpt lat="44.15699" lon="5.34123">
        <ele>1448.36</ele>
        <time>2017-05-22T08:24:52Z</time>
      </trkpt>
      <trkpt lat="44.157" lon="5.34123">
        <ele>1449.81</ele>
        <time>2017-05-22T08:24:54Z</time>
      </trkpt>
      <trkpt lat="44.15713" lon="5.34125">
        <ele>1450.77</ele>
        <time>2017-05-22T08:25:08Z</time>
      </trkpt>
      <trkpt lat="44.15723" lon="5.34128">
        <ele>1451.73</ele>
        <time>2017-05-22T08:25:21Z</time>
      </trkpt>
      <trkpt lat="44.1573" lon="5.34131">
        <ele>1452.21</ele>
        <time>2017-05-22T08:25:35Z</time>
      </trkpt>
      <trkpt lat="44.1574" lon="5.34137">
        <ele>1449.81</ele>
        <time>2017-05-22T08:25:48Z</time>
      </trkpt>
      <trkpt lat="44.1575" lon="5.34141">
        <ele>1449.81</ele>
        <time>2017-05-22T08:26:04Z</time>
      </trkpt>
      <trkpt lat="44.1575" lon="5.34143">
        <ele>1449.81</ele>
        <time>2017-05-22T08:26:26Z</time>
      </trkpt>
      <trkpt lat="44.15756" lon="5.34146">
        <ele>1449.32</ele>
        <time>2017-05-22T08:26:44Z</time>
      </trkpt>
      <trkpt lat="44.15766" lon="5.34152">
        <ele>1448.84</ele>
        <time>2017-05-22T08:26:59Z</time>
      </trkpt>
      <trkpt lat="44.15777" lon="5.34159">
        <ele>1447.4</ele>
        <time>2017-05-22T08:27:16Z</time>
      </trkpt>
      <trkpt lat="44.15787" lon="5.34166">
        <ele>1445.96</ele>
        <time>2017-05-22T08:27:31Z</time>
      </trkpt>
      <trkpt lat="44.15797" lon="5.34171">
        <ele>1445</ele>
        <time>2017-05-22T08:27:47Z</time>
      </trkpt>
      <trkpt lat="44.15809" lon="5.34175">
        <ele>1445</ele>
        <time>2017-05-22T08:28:03Z</time>
      </trkpt>
      <trkpt lat="44.15825" lon="5.34181">
        <ele>1444.52</ele>
        <time>2017-05-22T08:28:19Z</time>
      </trkpt>
      <trkpt lat="44.1584" lon="5.34186">
        <ele>1444.52</ele>
        <time>2017-05-22T08:28:35Z</time>
      </trkpt>
      <trkpt lat="44.15854" lon="5.3419">
        <ele>1444.52</ele>
        <time>2017-05-22T08:28:51Z</time>
      </trkpt>
      <trkpt lat="44.15867" lon="5.34192">
        <ele>1444.04</ele>
        <time>2017-05-22T08:29:04Z</time>
      </trkpt>
      <trkpt lat="44.1588" lon="5.34197">
        <ele>1445.48</ele>
        <time>2017-05-22T08:29:18Z</time>
      </trkpt>
      <trkpt lat="44.15894" lon="5.34201">
        <ele>1445.96</ele>
        <time>2017-05-22T08:29:33Z</time>
      </trkpt>
      <trkpt lat="44.1591" lon="5.34208">
        <ele>1446.44</ele>
        <time>2017-05-22T08:29:49Z</time>
      </trkpt>
      <trkpt lat="44.15928" lon="5.34219">
        <ele>1446.44</ele>
        <time>2017-05-22T08:30:07Z</time>
      </trkpt>
      <trkpt lat="44.1594" lon="5.34223">
        <ele>1446.44</ele>
        <time>2017-05-22T08:30:24Z</time>
      </trkpt>
      <trkpt lat="44.15942" lon="5.34227">
        <ele>1446.92</ele>
        <time>2017-05-22T08:30:44Z</time>
      </trkpt>
      <trkpt lat="44.1595" lon="5.34234">
        <ele>1445.48</ele>
        <time>2017-05-22T08:31:01Z</time>
      </trkpt>
      <trkpt lat="44.15954" lon="5.34237">
        <ele>1445.48</ele>
        <time>2017-05-22T08:31:14Z</time>
      </trkpt>
      <trkpt lat="44.15953" lon="5.34237">
        <ele>1445.48</ele>
        <time>2017-05-22T08:31:37Z</time>
      </trkpt>
      <trkpt lat="44.15951" lon="5.34233">
        <ele>1445.48</ele>
        <time>2017-05-22T08:31:59Z</time>
      </trkpt>
      <trkpt lat="44.15951" lon="5.34237">
        <ele>1444.04</ele>
        <time>2017-05-22T08:32:11Z</time>
      </trkpt>
      <trkpt lat="44.15957" lon="5.34243">
        <ele>1444.04</ele>
        <time>2017-05-22T08:32:40Z</time>
      </trkpt>
      <trkpt lat="44.15958" lon="5.3424">
        <ele>1444.52</ele>
        <time>2017-05-22T08:33:14Z</time>
      </trkpt>
      <trkpt lat="44.1596" lon="5.34243">
        <ele>1444.52</ele>
        <time>2017-05-22T08:33:51Z</time>
      </trkpt>
      <trkpt lat="44.15961" lon="5.34245">
        <ele>1445</ele>
        <time>2017-05-22T08:34:35Z</time>
      </trkpt>
      <trkpt lat="44.15961" lon="5.34242">
        <ele>1445.48</ele>
        <time>2017-05-22T08:35:07Z</time>
      </trkpt>
      <trkpt lat="44.15956" lon="5.34243">
        <ele>1445.48</ele>
        <time>2017-05-22T08:35:37Z</time>
      </trkpt>
      <trkpt lat="44.15952" lon="5.34242">
        <ele>1445.96</ele>
        <time>2017-05-22T08:36:18Z</time>
      </trkpt>
      <trkpt lat="44.15953" lon="5.34236">
        <ele>1445.96</ele>
        <time>2017-05-22T08:36:54Z</time>
      </trkpt>
      <trkpt lat="44.15959" lon="5.3424">
        <ele>1445.96</ele>
        <time>2017-05-22T08:37:38Z</time>
      </trkpt>
      <trkpt lat="44.15959" lon="5.3424">
        <ele>1446.44</ele>
        <time>2017-05-22T08:38:17Z</time>
      </trkpt>
      <trkpt lat="44.15959" lon="5.3424">
        <ele>1446.44</ele>
        <time>2017-05-22T08:39:00Z</time>
      </trkpt>
      <trkpt lat="44.15961" lon="5.34241">
        <ele>1446.92</ele>
        <time>2017-05-22T08:39:40Z</time>
      </trkpt>
      <trkpt lat="44.15959" lon="5.3424">
        <ele>1446.92</ele>
        <time>2017-05-22T08:40:17Z</time>
      </trkpt>
      <trkpt lat="44.15958" lon="5.34238">
        <ele>1447.4</ele>
        <time>2017-05-22T08:40:50Z</time>
      </trkpt>
      <trkpt lat="44.15957" lon="5.34241">
        <ele>1447.4</ele>
        <time>2017-05-22T08:41:19Z</time>
      </trkpt>
      <trkpt lat="44.15956" lon="5.34238">
        <ele>1447.4</ele>
        <time>2017-05-22T08:41:57Z</time>
      </trkpt>
      <trkpt lat="44.15956" lon="5.34236">
        <ele>1447.4</ele>
        <time>2017-05-22T08:42:31Z</time>
      </trkpt>
      <trkpt lat="44.15955" lon="5.34233">
        <ele>1447.4</ele>
        <time>2017-05-22T08:42:47Z</time>
      </trkpt>
      <trkpt lat="44.15949" lon="5.34225">
        <ele>1447.4</ele>
        <time>2017-05-22T08:43:17Z</time>
      </trkpt>
      <trkpt lat="44.1595" lon="5.34228">
        <ele>1447.88</ele>
        <time>2017-05-22T08:43:44Z</time>
      </trkpt>
      <trkpt lat="44.15941" lon="5.34223">
        <ele>1447.88</ele>
        <time>2017-05-22T08:44:13Z</time>
      </trkpt>
      <trkpt lat="44.1595" lon="5.34228">
        <ele>1448.36</ele>
        <time>2017-05-22T08:44:53Z</time>
      </trkpt>
      <trkpt lat="44.15952" lon="5.34232">
        <ele>1449.81</ele>
        <time>2017-05-22T08:45:10Z</time>
      </trkpt>
      <trkpt lat="44.15955" lon="5.34238">
        <ele>1449.81</ele>
        <time>2017-05-22T08:45:24Z</time>
      </trkpt>
      <trkpt lat="44.15953" lon="5.34238">
        <ele>1449.81</ele>
        <time>2017-05-22T08:45:44Z</time>
      </trkpt>
      <trkpt lat="44.15954" lon="5.34238">
        <ele>1449.81</ele>
        <time>2017-05-22T08:46:12Z</time>
      </trkpt>
      <trkpt lat="44.15962" lon="5.34242">
        <ele>1450.77</ele>
        <time>2017-05-22T08:46:26Z</time>
      </trkpt>
      <trkpt lat="44.15972" lon="5.34248">
        <ele>1450.77</ele>
        <time>2017-05-22T08:46:39Z</time>
      </trkpt>
      <trkpt lat="44.15977" lon="5.34253">
        <ele>1451.25</ele>
        <time>2017-05-22T08:46:50Z</time>
      </trkpt>
      <trkpt lat="44.15988" lon="5.34261">
        <ele>1449.81</ele>
        <time>2017-05-22T08:47:05Z</time>
      </trkpt>
      <trkpt lat="44.15996" lon="5.34265">
        <ele>1449.81</ele>
        <time>2017-05-22T08:47:19Z</time>
      </trkpt>
      <trkpt lat="44.16006" lon="5.34268">
        <ele>1449.32</ele>
        <time>2017-05-22T08:47:31Z</time>
      </trkpt>
      <trkpt lat="44.16009" lon="5.34269">
        <ele>1449.32</ele>
        <time>2017-05-22T08:47:44Z</time>
      </trkpt>
      <trkpt lat="44.1601" lon="5.34271">
        <ele>1448.84</ele>
        <time>2017-05-22T08:48:02Z</time>
      </trkpt>
      <trkpt lat="44.16011" lon="5.34272">
        <ele>1448.84</ele>
        <time>2017-05-22T08:48:07Z</time>
      </trkpt>
      <trkpt lat="44.1601" lon="5.3427">
        <ele>1449.32</ele>
        <time>2017-05-22T08:48:22Z</time>
      </trkpt>
      <trkpt lat="44.1601" lon="5.3427">
        <ele>1449.32</ele>
        <time>2017-05-22T08:48:40Z</time>
      </trkpt>
      <trkpt lat="44.16011" lon="5.34271">
        <ele>1449.32</ele>
        <time>2017-05-22T08:48:44Z</time>
      </trkpt>
      <trkpt lat="44.16024" lon="5.34279">
        <ele>1448.84</ele>
        <time>2017-05-22T08:49:01Z</time>
      </trkpt>
      <trkpt lat="44.16032" lon="5.34277">
        <ele>1448.84</ele>
        <time>2017-05-22T08:49:15Z</time>
      </trkpt>
      <trkpt lat="44.16036" lon="5.34273">
        <ele>1449.81</ele>
        <time>2017-05-22T08:49:28Z</time>
      </trkpt>
      <trkpt lat="44.16036" lon="5.34273">
        <ele>1449.81</ele>
        <time>2017-05-22T08:49:29Z</time>
      </trkpt>
      <trkpt lat="44.16036" lon="5.34267">
        <ele>1451.73</ele>
        <time>2017-05-22T08:49:43Z</time>
      </trkpt>
      <trkpt lat="44.16038" lon="5.34256">
        <ele>1455.09</ele>
        <time>2017-05-22T08:50:00Z</time>
      </trkpt>
      <trkpt lat="44.16036" lon="5.34242">
        <ele>1457.98</ele>
        <time>2017-05-22T08:50:21Z</time>
      </trkpt>
      <trkpt lat="44.16039" lon="5.34239">
        <ele>1459.42</ele>
        <time>2017-05-22T08:50:36Z</time>
      </trkpt>
      <trkpt lat="44.16042" lon="5.34232">
        <ele>1461.82</ele>
        <time>2017-05-22T08:50:51Z</time>
      </trkpt>
      <trkpt lat="44.16041" lon="5.34225">
        <ele>1463.74</ele>
        <time>2017-05-22T08:51:06Z</time>
      </trkpt>
      <trkpt lat="44.16038" lon="5.34216">
        <ele>1466.63</ele>
        <time>2017-05-22T08:51:20Z</time>
      </trkpt>
      <trkpt lat="44.16039" lon="5.34205">
        <ele>1469.03</ele>
        <time>2017-05-22T08:51:36Z</time>
      </trkpt>
      <trkpt lat="44.16041" lon="5.34197">
        <ele>1470.95</ele>
        <time>2017-05-22T08:51:50Z</time>
      </trkpt>
      <trkpt lat="44.16045" lon="5.34194">
        <ele>1472.4</ele>
        <time>2017-05-22T08:52:03Z</time>
      </trkpt>
      <trkpt lat="44.16052" lon="5.34189">
        <ele>1473.84</ele>
        <time>2017-05-22T08:52:18Z</time>
      </trkpt>
      <trkpt lat="44.1605" lon="5.3419">
        <ele>1474.8</ele>
        <time>2017-05-22T08:52:43Z</time>
      </trkpt>
      <trkpt lat="44.16051" lon="5.34191">
        <ele>1474.8</ele>
        <time>2017-05-22T08:53:03Z</time>
      </trkpt>
      <trkpt lat="44.16052" lon="5.34191">
        <ele>1474.8</ele>
        <time>2017-05-22T08:53:32Z</time>
      </trkpt>
      <trkpt lat="44.16053" lon="5.34191">
        <ele>1474.8</ele>
        <time>2017-05-22T08:53:59Z</time>
      </trkpt>
      <trkpt lat="44.16052" lon="5.34193">
        <ele>1473.84</ele>
        <time>2017-05-22T08:54:21Z</time>
      </trkpt>
      <trkpt lat="44.16061" lon="5.34183">
        <ele>1475.76</ele>
        <time>2017-05-22T08:54:35Z</time>
      </trkpt>
      <trkpt lat="44.16063" lon="5.34181">
        <ele>1476.72</ele>
        <time>2017-05-22T08:54:38Z</time>
      </trkpt>
      <trkpt lat="44.16071" lon="5.34173">
        <ele>1478.65</ele>
        <time>2017-05-22T08:54:52Z</time>
      </trkpt>
      <trkpt lat="44.16074" lon="5.34162">
        <ele>1480.57</ele>
        <time>2017-05-22T08:55:08Z</time>
      </trkpt>
      <trkpt lat="44.16076" lon="5.34151">
        <ele>1482.49</ele>
        <time>2017-05-22T08:55:22Z</time>
      </trkpt>
      <trkpt lat="44.16076" lon="5.34147">
        <ele>1483.45</ele>
        <time>2017-05-22T08:55:38Z</time>
      </trkpt>
      <trkpt lat="44.16075" lon="5.34135">
        <ele>1485.85</ele>
        <time>2017-05-22T08:55:51Z</time>
      </trkpt>
      <trkpt lat="44.16077" lon="5.3412">
        <ele>1489.22</ele>
        <time>2017-05-22T08:56:06Z</time>
      </trkpt>
      <trkpt lat="44.16082" lon="5.34108">
        <ele>1491.62</ele>
        <time>2017-05-22T08:56:23Z</time>
      </trkpt>
      <trkpt lat="44.16089" lon="5.34099">
        <ele>1493.55</ele>
        <time>2017-05-22T08:56:39Z</time>
      </trkpt>
      <trkpt lat="44.1609" lon="5.34086">
        <ele>1495.95</ele>
        <time>2017-05-22T08:56:54Z</time>
      </trkpt>
      <trkpt lat="44.16088" lon="5.34072">
        <ele>1495.95</ele>
        <time>2017-05-22T08:57:07Z</time>
      </trkpt>
      <trkpt lat="44.16087" lon="5.34065">
        <ele>1496.43</ele>
        <time>2017-05-22T08:57:13Z</time>
      </trkpt>
      <trkpt lat="44.16089" lon="5.34049">
        <ele>1496.91</ele>
        <time>2017-05-22T08:57:27Z</time>
      </trkpt>
      <trkpt lat="44.16089" lon="5.34034">
        <ele>1496.91</ele>
        <time>2017-05-22T08:57:43Z</time>
      </trkpt>
      <trkpt lat="44.16089" lon="5.34032">
        <ele>1495.95</ele>
        <time>2017-05-22T08:57:57Z</time>
      </trkpt>
      <trkpt lat="44.16089" lon="5.34034">
        <ele>1495.95</ele>
        <time>2017-05-22T08:58:17Z</time>
      </trkpt>
      <trkpt lat="44.1609" lon="5.34033">
        <ele>1495.95</ele>
        <time>2017-05-22T08:58:37Z</time>
      </trkpt>
      <trkpt lat="44.16088" lon="5.34034">
        <ele>1495.95</ele>
        <time>2017-05-22T08:59:04Z</time>
      </trkpt>
      <trkpt lat="44.1609" lon="5.34032">
        <ele>1495.95</ele>
        <time>2017-05-22T08:59:30Z</time>
      </trkpt>
      <trkpt lat="44.16088" lon="5.34033">
        <ele>1495.95</ele>
        <time>2017-05-22T08:59:58Z</time>
      </trkpt>
      <trkpt lat="44.16088" lon="5.34032">
        <ele>1495.95</ele>
        <time>2017-05-22T09:00:23Z</time>
      </trkpt>
      <trkpt lat="44.16088" lon="5.34031">
        <ele>1495.47</ele>
        <time>2017-05-22T09:00:45Z</time>
      </trkpt>
      <trkpt lat="44.16087" lon="5.3403">
        <ele>1495.47</ele>
        <time>2017-05-22T09:01:07Z</time>
      </trkpt>
      <trkpt lat="44.16087" lon="5.3403">
        <ele>1495.95</ele>
        <time>2017-05-22T09:01:38Z</time>
      </trkpt>
      <trkpt lat="44.16087" lon="5.34025">
        <ele>1495.95</ele>
        <time>2017-05-22T09:02:09Z</time>
      </trkpt>
      <trkpt lat="44.16084" lon="5.34027">
        <ele>1495.95</ele>
        <time>2017-05-22T09:02:33Z</time>
      </trkpt>
      <trkpt lat="44.16086" lon="5.34027">
        <ele>1495.95</ele>
        <time>2017-05-22T09:02:54Z</time>
      </trkpt>
      <trkpt lat="44.16088" lon="5.34025">
        <ele>1495.95</ele>
        <time>2017-05-22T09:03:19Z</time>
      </trkpt>
      <trkpt lat="44.16087" lon="5.34025">
        <ele>1496.43</ele>
        <time>2017-05-22T09:03:51Z</time>
      </trkpt>
      <trkpt lat="44.16088" lon="5.34026">
        <ele>1496.43</ele>
        <time>2017-05-22T09:04:13Z</time>
      </trkpt>
      <trkpt lat="44.16088" lon="5.34027">
        <ele>1496.43</ele>
        <time>2017-05-22T09:04:34Z</time>
      </trkpt>
      <trkpt lat="44.16085" lon="5.34024">
        <ele>1496.43</ele>
        <time>2017-05-22T09:04:54Z</time>
      </trkpt>
      <trkpt lat="44.16078" lon="5.34021">
        <ele>1497.87</ele>
        <time>2017-05-22T09:05:04Z</time>
      </trkpt>
      <trkpt lat="44.16071" lon="5.34024">
        <ele>1499.79</ele>
        <time>2017-05-22T09:05:17Z</time>
      </trkpt>
      <trkpt lat="44.16064" lon="5.34019">
        <ele>1502.68</ele>
        <time>2017-05-22T09:05:31Z</time>
      </trkpt>
      <trkpt lat="44.16053" lon="5.34012">
        <ele>1504.6</ele>
        <time>2017-05-22T09:05:45Z</time>
      </trkpt>
      <trkpt lat="44.16047" lon="5.34008">
        <ele>1505.56</ele>
        <time>2017-05-22T09:05:53Z</time>
      </trkpt>
      <trkpt lat="44.16045" lon="5.34008">
        <ele>1504.12</ele>
        <time>2017-05-22T09:05:55Z</time>
      </trkpt>
      <trkpt lat="44.16035" lon="5.34">
        <ele>1504.12</ele>
        <time>2017-05-22T09:06:10Z</time>
      </trkpt>
      <trkpt lat="44.16026" lon="5.33987">
        <ele>1505.56</ele>
        <time>2017-05-22T09:06:25Z</time>
      </trkpt>
      <trkpt lat="44.16019" lon="5.33974">
        <ele>1507</ele>
        <time>2017-05-22T09:06:40Z</time>
      </trkpt>
      <trkpt lat="44.16009" lon="5.33962">
        <ele>1509.89</ele>
        <time>2017-05-22T09:06:57Z</time>
      </trkpt>
      <trkpt lat="44.16001" lon="5.33954">
        <ele>1512.29</ele>
        <time>2017-05-22T09:07:12Z</time>
      </trkpt>
      <trkpt lat="44.15999" lon="5.33944">
        <ele>1514.69</ele>
        <time>2017-05-22T09:07:29Z</time>
      </trkpt>
      <trkpt lat="44.15993" lon="5.33937">
        <ele>1517.1</ele>
        <time>2017-05-22T09:07:43Z</time>
      </trkpt>
      <trkpt lat="44.15985" lon="5.33934">
        <ele>1519.98</ele>
        <time>2017-05-22T09:08:00Z</time>
      </trkpt>
      <trkpt lat="44.1598" lon="5.3393">
        <ele>1522.87</ele>
        <time>2017-05-22T09:08:17Z</time>
      </trkpt>
      <trkpt lat="44.15973" lon="5.33928">
        <ele>1525.27</ele>
        <time>2017-05-22T09:08:34Z</time>
      </trkpt>
      <trkpt lat="44.15973" lon="5.33929">
        <ele>1525.75</ele>
        <time>2017-05-22T09:08:50Z</time>
      </trkpt>
      <trkpt lat="44.15973" lon="5.33932">
        <ele>1525.75</ele>
        <time>2017-05-22T09:09:18Z</time>
      </trkpt>
      <trkpt lat="44.15973" lon="5.3393">
        <ele>1525.75</ele>
        <time>2017-05-22T09:09:41Z</time>
      </trkpt>
      <trkpt lat="44.15973" lon="5.3393">
        <ele>1525.27</ele>
        <time>2017-05-22T09:09:58Z</time>
      </trkpt>
      <trkpt lat="44.15973" lon="5.33928">
        <ele>1525.27</ele>
        <time>2017-05-22T09:10:18Z</time>
      </trkpt>
      <trkpt lat="44.15972" lon="5.33929">
        <ele>1525.27</ele>
        <time>2017-05-22T09:10:46Z</time>
      </trkpt>
      <trkpt lat="44.15971" lon="5.33931">
        <ele>1525.75</ele>
        <time>2017-05-22T09:11:18Z</time>
      </trkpt>
      <trkpt lat="44.15972" lon="5.33932">
        <ele>1525.75</ele>
        <time>2017-05-22T09:11:37Z</time>
      </trkpt>
      <trkpt lat="44.15971" lon="5.3393">
        <ele>1527.19</ele>
        <time>2017-05-22T09:11:42Z</time>
      </trkpt>
      <trkpt lat="44.15964" lon="5.33926">
        <ele>1531.04</ele>
        <time>2017-05-22T09:11:57Z</time>
      </trkpt>
      <trkpt lat="44.1596" lon="5.33919">
        <ele>1532.96</ele>
        <time>2017-05-22T09:12:11Z</time>
      </trkpt>
      <trkpt lat="44.1596" lon="5.3391">
        <ele>1535.36</ele>
        <time>2017-05-22T09:12:25Z</time>
      </trkpt>
      <trkpt lat="44.15958" lon="5.339">
        <ele>1538.25</ele>
        <time>2017-05-22T09:12:40Z</time>
      </trkpt>
      <trkpt lat="44.15957" lon="5.33891">
        <ele>1540.65</ele>
        <time>2017-05-22T09:12:56Z</time>
      </trkpt>
      <trkpt lat="44.15953" lon="5.33886">
        <ele>1543.53</ele>
        <time>2017-05-22T09:13:11Z</time>
      </trkpt>
      <trkpt lat="44.15947" lon="5.33882">
        <ele>1545.46</ele>
        <time>2017-05-22T09:13:25Z</time>
      </trkpt>
      <trkpt lat="44.15947" lon="5.33875">
        <ele>1546.9</ele>
        <time>2017-05-22T09:13:37Z</time>
      </trkpt>
      <trkpt lat="44.15946" lon="5.33865">
        <ele>1548.82</ele>
        <time>2017-05-22T09:13:51Z</time>
      </trkpt>
      <trkpt lat="44.15943" lon="5.33854">
        <ele>1550.74</ele>
        <time>2017-05-22T09:14:08Z</time>
      </trkpt>
      <trkpt lat="44.15936" lon="5.33843">
        <ele>1553.15</ele>
        <time>2017-05-22T09:14:25Z</time>
      </trkpt>
      <trkpt lat="44.15933" lon="5.33838">
        <ele>1554.11</ele>
        <time>2017-05-22T09:14:36Z</time>
      </trkpt>
      <trkpt lat="44.15922" lon="5.33835">
        <ele>1556.03</ele>
        <time>2017-05-22T09:14:51Z</time>
      </trkpt>
      <trkpt lat="44.15917" lon="5.33831">
        <ele>1556.99</ele>
        <time>2017-05-22T09:15:03Z</time>
      </trkpt>
      <trkpt lat="44.15918" lon="5.33831">
        <ele>1557.47</ele>
        <time>2017-05-22T09:15:20Z</time>
      </trkpt>
      <trkpt lat="44.15917" lon="5.33828">
        <ele>1556.99</ele>
        <time>2017-05-22T09:15:38Z</time>
      </trkpt>
      <trkpt lat="44.15916" lon="5.33825">
        <ele>1556.99</ele>
        <time>2017-05-22T09:16:05Z</time>
      </trkpt>
      <trkpt lat="44.15915" lon="5.33825">
        <ele>1556.51</ele>
        <time>2017-05-22T09:16:29Z</time>
      </trkpt>
      <trkpt lat="44.15914" lon="5.33825">
        <ele>1556.51</ele>
        <time>2017-05-22T09:16:56Z</time>
      </trkpt>
      <trkpt lat="44.15914" lon="5.33827">
        <ele>1556.51</ele>
        <time>2017-05-22T09:17:17Z</time>
      </trkpt>
      <trkpt lat="44.15916" lon="5.33828">
        <ele>1556.51</ele>
        <time>2017-05-22T09:17:44Z</time>
      </trkpt>
      <trkpt lat="44.15917" lon="5.33828">
        <ele>1556.51</ele>
        <time>2017-05-22T09:18:09Z</time>
      </trkpt>
      <trkpt lat="44.15917" lon="5.3383">
        <ele>1556.51</ele>
        <time>2017-05-22T09:18:32Z</time>
      </trkpt>
      <trkpt lat="44.15915" lon="5.3383">
        <ele>1556.51</ele>
        <time>2017-05-22T09:18:55Z</time>
      </trkpt>
      <trkpt lat="44.15914" lon="5.33833">
        <ele>1557.47</ele>
        <time>2017-05-22T09:19:09Z</time>
      </trkpt>
      <trkpt lat="44.15912" lon="5.33835">
        <ele>1557.47</ele>
        <time>2017-05-22T09:19:20Z</time>
      </trkpt>
      <trkpt lat="44.15907" lon="5.33833">
        <ele>1557.95</ele>
        <time>2017-05-22T09:19:34Z</time>
      </trkpt>
      <trkpt lat="44.15905" lon="5.33825">
        <ele>1558.43</ele>
        <time>2017-05-22T09:19:47Z</time>
      </trkpt>
      <trkpt lat="44.1591" lon="5.33825">
        <ele>1558.43</ele>
        <time>2017-05-22T09:20:02Z</time>
      </trkpt>
      <trkpt lat="44.15903" lon="5.33825">
        <ele>1558.43</ele>
        <time>2017-05-22T09:20:17Z</time>
      </trkpt>
      <trkpt lat="44.15902" lon="5.33825">
        <ele>1558.43</ele>
        <time>2017-05-22T09:20:18Z</time>
      </trkpt>
      <trkpt lat="44.15896" lon="5.33813">
        <ele>1558.92</ele>
        <time>2017-05-22T09:20:30Z</time>
      </trkpt>
      <trkpt lat="44.15888" lon="5.33803">
        <ele>1559.4</ele>
        <time>2017-05-22T09:20:43Z</time>
      </trkpt>
      <trkpt lat="44.15885" lon="5.33802">
        <ele>1559.4</ele>
        <time>2017-05-22T09:20:46Z</time>
      </trkpt>
      <trkpt lat="44.15877" lon="5.33798">
        <ele>1559.4</ele>
        <time>2017-05-22T09:20:58Z</time>
      </trkpt>
      <trkpt lat="44.15867" lon="5.33793">
        <ele>1560.84</ele>
        <time>2017-05-22T09:21:11Z</time>
      </trkpt>
      <trkpt lat="44.15857" lon="5.33785">
        <ele>1562.28</ele>
        <time>2017-05-22T09:21:28Z</time>
      </trkpt>
      <trkpt lat="44.1585" lon="5.33777">
        <ele>1563.24</ele>
        <time>2017-05-22T09:21:42Z</time>
      </trkpt>
      <trkpt lat="44.15839" lon="5.33764">
        <ele>1563.72</ele>
        <time>2017-05-22T09:22:00Z</time>
      </trkpt>
      <trkpt lat="44.15835" lon="5.33759">
        <ele>1563.72</ele>
        <time>2017-05-22T09:22:06Z</time>
      </trkpt>
      <trkpt lat="44.15822" lon="5.3375">
        <ele>1563.72</ele>
        <time>2017-05-22T09:22:23Z</time>
      </trkpt>
      <trkpt lat="44.15821" lon="5.33749">
        <ele>1564.2</ele>
        <time>2017-05-22T09:22:24Z</time>
      </trkpt>
      <trkpt lat="44.1581" lon="5.33739">
        <ele>1564.2</ele>
        <time>2017-05-22T09:22:39Z</time>
      </trkpt>
      <trkpt lat="44.15804" lon="5.33734">
        <ele>1565.16</ele>
        <time>2017-05-22T09:22:51Z</time>
      </trkpt>
      <trkpt lat="44.15801" lon="5.33726">
        <ele>1565.64</ele>
        <time>2017-05-22T09:23:07Z</time>
      </trkpt>
      <trkpt lat="44.158" lon="5.33715">
        <ele>1566.61</ele>
        <time>2017-05-22T09:23:23Z</time>
      </trkpt>
      <trkpt lat="44.15797" lon="5.33708">
        <ele>1568.05</ele>
        <time>2017-05-22T09:23:31Z</time>
      </trkpt>
      <trkpt lat="44.15786" lon="5.33696">
        <ele>1569.01</ele>
        <time>2017-05-22T09:23:46Z</time>
      </trkpt>
      <trkpt lat="44.15787" lon="5.33698">
        <ele>1569.97</ele>
        <time>2017-05-22T09:24:06Z</time>
      </trkpt>
      <trkpt lat="44.15787" lon="5.33699">
        <ele>1568.05</ele>
        <time>2017-05-22T09:24:19Z</time>
      </trkpt>
      <trkpt lat="44.15788" lon="5.337">
        <ele>1569.97</ele>
        <time>2017-05-22T09:24:41Z</time>
      </trkpt>
      <trkpt lat="44.15788" lon="5.33699">
        <ele>1569.97</ele>
        <time>2017-05-22T09:24:59Z</time>
      </trkpt>
      <trkpt lat="44.15787" lon="5.33697">
        <ele>1569.01</ele>
        <time>2017-05-22T09:25:27Z</time>
      </trkpt>
      <trkpt lat="44.15784" lon="5.33692">
        <ele>1569.01</ele>
        <time>2017-05-22T09:25:43Z</time>
      </trkpt>
      <trkpt lat="44.15778" lon="5.33684">
        <ele>1570.93</ele>
        <time>2017-05-22T09:25:57Z</time>
      </trkpt>
      <trkpt lat="44.15774" lon="5.3368">
        <ele>1571.41</ele>
        <time>2017-05-22T09:26:02Z</time>
      </trkpt>
      <trkpt lat="44.15765" lon="5.33668">
        <ele>1571.89</ele>
        <time>2017-05-22T09:26:17Z</time>
      </trkpt>
      <trkpt lat="44.15752" lon="5.33651">
        <ele>1573.33</ele>
        <time>2017-05-22T09:26:33Z</time>
      </trkpt>
      <trkpt lat="44.15749" lon="5.33646">
        <ele>1573.33</ele>
        <time>2017-05-22T09:26:38Z</time>
      </trkpt>
      <trkpt lat="44.15747" lon="5.3363">
        <ele>1573.82</ele>
        <time>2017-05-22T09:26:53Z</time>
      </trkpt>
      <trkpt lat="44.15748" lon="5.33624">
        <ele>1574.3</ele>
        <time>2017-05-22T09:27:01Z</time>
      </trkpt>
      <trkpt lat="44.15748" lon="5.33604">
        <ele>1575.26</ele>
        <time>2017-05-22T09:27:16Z</time>
      </trkpt>
      <trkpt lat="44.1575" lon="5.33585">
        <ele>1576.22</ele>
        <time>2017-05-22T09:27:31Z</time>
      </trkpt>
      <trkpt lat="44.15753" lon="5.33565">
        <ele>1577.18</ele>
        <time>2017-05-22T09:27:47Z</time>
      </trkpt>
      <trkpt lat="44.15756" lon="5.33546">
        <ele>1577.66</ele>
        <time>2017-05-22T09:28:01Z</time>
      </trkpt>
      <trkpt lat="44.15759" lon="5.3353">
        <ele>1578.62</ele>
        <time>2017-05-22T09:28:14Z</time>
      </trkpt>
      <trkpt lat="44.15762" lon="5.33511">
        <ele>1579.1</ele>
        <time>2017-05-22T09:28:28Z</time>
      </trkpt>
      <trkpt lat="44.15765" lon="5.33493">
        <ele>1580.06</ele>
        <time>2017-05-22T09:28:42Z</time>
      </trkpt>
      <trkpt lat="44.15768" lon="5.33475">
        <ele>1580.54</ele>
        <time>2017-05-22T09:28:56Z</time>
      </trkpt>
      <trkpt lat="44.15771" lon="5.33453">
        <ele>1581.51</ele>
        <time>2017-05-22T09:29:12Z</time>
      </trkpt>
      <trkpt lat="44.15775" lon="5.33435">
        <ele>1582.95</ele>
        <time>2017-05-22T09:29:26Z</time>
      </trkpt>
      <trkpt lat="44.15782" lon="5.33417">
        <ele>1582.95</ele>
        <time>2017-05-22T09:29:41Z</time>
      </trkpt>
      <trkpt lat="44.15791" lon="5.33398">
        <ele>1583.43</ele>
        <time>2017-05-22T09:29:56Z</time>
      </trkpt>
      <trkpt lat="44.15801" lon="5.33376">
        <ele>1583.43</ele>
        <time>2017-05-22T09:30:13Z</time>
      </trkpt>
      <trkpt lat="44.15805" lon="5.33366">
        <ele>1583.91</ele>
        <time>2017-05-22T09:30:21Z</time>
      </trkpt>
      <trkpt lat="44.15817" lon="5.3334">
        <ele>1584.39</ele>
        <time>2017-05-22T09:30:41Z</time>
      </trkpt>
      <trkpt lat="44.15823" lon="5.3332">
        <ele>1584.87</ele>
        <time>2017-05-22T09:30:56Z</time>
      </trkpt>
      <trkpt lat="44.15823" lon="5.33296">
        <ele>1584.87</ele>
        <time>2017-05-22T09:31:13Z</time>
      </trkpt>
      <trkpt lat="44.15825" lon="5.33276">
        <ele>1585.83</ele>
        <time>2017-05-22T09:31:29Z</time>
      </trkpt>
      <trkpt lat="44.15825" lon="5.33276">
        <ele>1583.43</ele>
        <time>2017-05-22T09:31:43Z</time>
      </trkpt>
      <trkpt lat="44.15825" lon="5.33276">
        <ele>1584.39</ele>
        <time>2017-05-22T09:31:58Z</time>
      </trkpt>
      <trkpt lat="44.15824" lon="5.33274">
        <ele>1584.39</ele>
        <time>2017-05-22T09:32:13Z</time>
      </trkpt>
      <trkpt lat="44.15825" lon="5.33275">
        <ele>1583.43</ele>
        <time>2017-05-22T09:32:30Z</time>
      </trkpt>
      <trkpt lat="44.15826" lon="5.33273">
        <ele>1585.35</ele>
        <time>2017-05-22T09:32:42Z</time>
      </trkpt>
      <trkpt lat="44.15826" lon="5.33272">
        <ele>1583.91</ele>
        <time>2017-05-22T09:32:56Z</time>
      </trkpt>
      <trkpt lat="44.15827" lon="5.33273">
        <ele>1583.91</ele>
        <time>2017-05-22T09:33:12Z</time>
      </trkpt>
      <trkpt lat="44.15827" lon="5.33274">
        <ele>1583.91</ele>
        <time>2017-05-22T09:33:31Z</time>
      </trkpt>
      <trkpt lat="44.15826" lon="5.33272">
        <ele>1583.91</ele>
        <time>2017-05-22T09:33:51Z</time>
      </trkpt>
      <trkpt lat="44.15823" lon="5.3327">
        <ele>1583.91</ele>
        <time>2017-05-22T09:34:10Z</time>
      </trkpt>
      <trkpt lat="44.15822" lon="5.33263">
        <ele>1583.91</ele>
        <time>2017-05-22T09:34:30Z</time>
      </trkpt>
      <trkpt lat="44.15822" lon="5.33257">
        <ele>1583.91</ele>
        <time>2017-05-22T09:34:36Z</time>
      </trkpt>
      <trkpt lat="44.15822" lon="5.33251">
        <ele>1583.91</ele>
        <time>2017-05-22T09:34:40Z</time>
      </trkpt>
      <trkpt lat="44.15821" lon="5.33227">
        <ele>1583.43</ele>
        <time>2017-05-22T09:34:56Z</time>
      </trkpt>
      <trkpt lat="44.15822" lon="5.33195">
        <ele>1582.95</ele>
        <time>2017-05-22T09:35:16Z</time>
      </trkpt>
      <trkpt lat="44.1582" lon="5.33166">
        <ele>1581.99</ele>
        <time>2017-05-22T09:35:34Z</time>
      </trkpt>
      <trkpt lat="44.15816" lon="5.33154">
        <ele>1583.43</ele>
        <time>2017-05-22T09:35:43Z</time>
      </trkpt>
      <trkpt lat="44.15811" lon="5.33138">
        <ele>1581.99</ele>
        <time>2017-05-22T09:35:57Z</time>
      </trkpt>
      <trkpt lat="44.1581" lon="5.33135">
        <ele>1581.51</ele>
        <time>2017-05-22T09:35:59Z</time>
      </trkpt>
      <trkpt lat="44.1581" lon="5.33117">
        <ele>1579.1</ele>
        <time>2017-05-22T09:36:11Z</time>
      </trkpt>
      <trkpt lat="44.15823" lon="5.33094">
        <ele>1577.18</ele>
        <time>2017-05-22T09:36:29Z</time>
      </trkpt>
      <trkpt lat="44.15833" lon="5.3308">
        <ele>1575.74</ele>
        <time>2017-05-22T09:36:45Z</time>
      </trkpt>
      <trkpt lat="44.15837" lon="5.33081">
        <ele>1575.26</ele>
        <time>2017-05-22T09:36:59Z</time>
      </trkpt>
      <trkpt lat="44.15844" lon="5.33077">
        <ele>1574.3</ele>
        <time>2017-05-22T09:37:09Z</time>
      </trkpt>
      <trkpt lat="44.15851" lon="5.33061">
        <ele>1573.82</ele>
        <time>2017-05-22T09:37:23Z</time>
      </trkpt>
      <trkpt lat="44.15856" lon="5.33044">
        <ele>1573.82</ele>
        <time>2017-05-22T09:37:39Z</time>
      </trkpt>
      <trkpt lat="44.15863" lon="5.33019">
        <ele>1573.33</ele>
        <time>2017-05-22T09:37:56Z</time>
      </trkpt>
      <trkpt lat="44.15869" lon="5.33005">
        <ele>1572.85</ele>
        <time>2017-05-22T09:38:08Z</time>
      </trkpt>
      <trkpt lat="44.15871" lon="5.33001">
        <ele>1572.85</ele>
        <time>2017-05-22T09:38:12Z</time>
      </trkpt>
      <trkpt lat="44.15872" lon="5.32997">
        <ele>1574.3</ele>
        <time>2017-05-22T09:38:15Z</time>
      </trkpt>
      <trkpt lat="44.15877" lon="5.32972">
        <ele>1574.78</ele>
        <time>2017-05-22T09:38:32Z</time>
      </trkpt>
      <trkpt lat="44.15884" lon="5.32957">
        <ele>1575.26</ele>
        <time>2017-05-22T09:38:47Z</time>
      </trkpt>
      <trkpt lat="44.15889" lon="5.32947">
        <ele>1576.7</ele>
        <time>2017-05-22T09:38:59Z</time>
      </trkpt>
      <trkpt lat="44.15893" lon="5.32937">
        <ele>1577.18</ele>
        <time>2017-05-22T09:39:16Z</time>
      </trkpt>
      <trkpt lat="44.15898" lon="5.3292">
        <ele>1578.14</ele>
        <time>2017-05-22T09:39:32Z</time>
      </trkpt>
      <trkpt lat="44.15905" lon="5.32912">
        <ele>1579.1</ele>
        <time>2017-05-22T09:39:47Z</time>
      </trkpt>
      <trkpt lat="44.15904" lon="5.32912">
        <ele>1579.58</ele>
        <time>2017-05-22T09:40:11Z</time>
      </trkpt>
      <trkpt lat="44.15903" lon="5.32911">
        <ele>1579.58</ele>
        <time>2017-05-22T09:40:39Z</time>
      </trkpt>
      <trkpt lat="44.15899" lon="5.32915">
        <ele>1579.58</ele>
        <time>2017-05-22T09:41:10Z</time>
      </trkpt>
      <trkpt lat="44.15898" lon="5.32917">
        <ele>1579.1</ele>
        <time>2017-05-22T09:41:42Z</time>
      </trkpt>
      <trkpt lat="44.15902" lon="5.32915">
        <ele>1579.58</ele>
        <time>2017-05-22T09:42:13Z</time>
      </trkpt>
      <trkpt lat="44.159" lon="5.32917">
        <ele>1579.58</ele>
        <time>2017-05-22T09:42:36Z</time>
      </trkpt>
      <trkpt lat="44.15903" lon="5.32918">
        <ele>1579.58</ele>
        <time>2017-05-22T09:43:08Z</time>
      </trkpt>
      <trkpt lat="44.15909" lon="5.32901">
        <ele>1580.06</ele>
        <time>2017-05-22T09:43:22Z</time>
      </trkpt>
      <trkpt lat="44.15913" lon="5.32885">
        <ele>1581.03</ele>
        <time>2017-05-22T09:43:36Z</time>
      </trkpt>
      <trkpt lat="44.15915" lon="5.3287">
        <ele>1581.99</ele>
        <time>2017-05-22T09:43:49Z</time>
      </trkpt>
      <trkpt lat="44.15918" lon="5.32853">
        <ele>1583.91</ele>
        <time>2017-05-22T09:44:02Z</time>
      </trkpt>
      <trkpt lat="44.1592" lon="5.32844">
        <ele>1583.91</ele>
        <time>2017-05-22T09:44:08Z</time>
      </trkpt>
      <trkpt lat="44.15921" lon="5.3282">
        <ele>1584.39</ele>
        <time>2017-05-22T09:44:22Z</time>
      </trkpt>
      <trkpt lat="44.15924" lon="5.32798">
        <ele>1585.83</ele>
        <time>2017-05-22T09:44:38Z</time>
      </trkpt>
      <trkpt lat="44.15926" lon="5.32786">
        <ele>1587.75</ele>
        <time>2017-05-22T09:44:52Z</time>
      </trkpt>
      <trkpt lat="44.15928" lon="5.32771">
        <ele>1588.72</ele>
        <time>2017-05-22T09:45:06Z</time>
      </trkpt>
      <trkpt lat="44.15929" lon="5.32755">
        <ele>1590.64</ele>
        <time>2017-05-22T09:45:19Z</time>
      </trkpt>
      <trkpt lat="44.1593" lon="5.3274">
        <ele>1591.6</ele>
        <time>2017-05-22T09:45:33Z</time>
      </trkpt>
      <trkpt lat="44.15931" lon="5.32726">
        <ele>1593.52</ele>
        <time>2017-05-22T09:45:46Z</time>
      </trkpt>
      <trkpt lat="44.15933" lon="5.32711">
        <ele>1594.96</ele>
        <time>2017-05-22T09:46:01Z</time>
      </trkpt>
      <trkpt lat="44.15935" lon="5.32694">
        <ele>1597.37</ele>
        <time>2017-05-22T09:46:17Z</time>
      </trkpt>
      <trkpt lat="44.1594" lon="5.32684">
        <ele>1598.81</ele>
        <time>2017-05-22T09:46:30Z</time>
      </trkpt>
      <trkpt lat="44.15946" lon="5.32671">
        <ele>1601.21</ele>
        <time>2017-05-22T09:46:47Z</time>
      </trkpt>
      <trkpt lat="44.15949" lon="5.32667">
        <ele>1601.69</ele>
        <time>2017-05-22T09:47:01Z</time>
      </trkpt>
      <trkpt lat="44.15949" lon="5.32668">
        <ele>1601.69</ele>
        <time>2017-05-22T09:47:28Z</time>
      </trkpt>
      <trkpt lat="44.1595" lon="5.3267">
        <ele>1601.69</ele>
        <time>2017-05-22T09:47:52Z</time>
      </trkpt>
      <trkpt lat="44.1595" lon="5.32667">
        <ele>1601.21</ele>
        <time>2017-05-22T09:48:06Z</time>
      </trkpt>
      <trkpt lat="44.15948" lon="5.32664">
        <ele>1600.73</ele>
        <time>2017-05-22T09:48:32Z</time>
      </trkpt>
      <trkpt lat="44.15949" lon="5.32666">
        <ele>1601.69</ele>
        <time>2017-05-22T09:48:54Z</time>
      </trkpt>
      <trkpt lat="44.15951" lon="5.32667">
        <ele>1602.66</ele>
        <time>2017-05-22T09:49:07Z</time>
      </trkpt>
      <trkpt lat="44.15951" lon="5.32665">
        <ele>1602.66</ele>
        <time>2017-05-22T09:49:20Z</time>
      </trkpt>
      <trkpt lat="44.15959" lon="5.32664">
        <ele>1604.1</ele>
        <time>2017-05-22T09:49:35Z</time>
      </trkpt>
      <trkpt lat="44.15964" lon="5.32664">
        <ele>1604.1</ele>
        <time>2017-05-22T09:49:48Z</time>
      </trkpt>
      <trkpt lat="44.15971" lon="5.32659">
        <ele>1604.58</ele>
        <time>2017-05-22T09:50:02Z</time>
      </trkpt>
      <trkpt lat="44.15978" lon="5.3266">
        <ele>1603.14</ele>
        <time>2017-05-22T09:50:14Z</time>
      </trkpt>
      <trkpt lat="44.15984" lon="5.32662">
        <ele>1601.69</ele>
        <time>2017-05-22T09:50:27Z</time>
      </trkpt>
      <trkpt lat="44.15989" lon="5.3266">
        <ele>1601.69</ele>
        <time>2017-05-22T09:50:41Z</time>
      </trkpt>
      <trkpt lat="44.15994" lon="5.32657">
        <ele>1601.69</ele>
        <time>2017-05-22T09:50:56Z</time>
      </trkpt>
      <trkpt lat="44.15999" lon="5.32647">
        <ele>1602.17</ele>
        <time>2017-05-22T09:51:12Z</time>
      </trkpt>
      <trkpt lat="44.16004" lon="5.3264">
        <ele>1602.66</ele>
        <time>2017-05-22T09:51:24Z</time>
      </trkpt>
      <trkpt lat="44.16011" lon="5.32637">
        <ele>1601.21</ele>
        <time>2017-05-22T09:51:38Z</time>
      </trkpt>
      <trkpt lat="44.16018" lon="5.32634">
        <ele>1600.25</ele>
        <time>2017-05-22T09:51:52Z</time>
      </trkpt>
      <trkpt lat="44.16024" lon="5.32632">
        <ele>1598.81</ele>
        <time>2017-05-22T09:52:07Z</time>
      </trkpt>
      <trkpt lat="44.16024" lon="5.32631">
        <ele>1598.33</ele>
        <time>2017-05-22T09:52:19Z</time>
      </trkpt>
      <trkpt lat="44.16027" lon="5.32628">
        <ele>1598.33</ele>
        <time>2017-05-22T09:52:30Z</time>
      </trkpt>
      <trkpt lat="44.16032" lon="5.32626">
        <ele>1598.33</ele>
        <time>2017-05-22T09:52:43Z</time>
      </trkpt>
      <trkpt lat="44.16037" lon="5.3262">
        <ele>1597.85</ele>
        <time>2017-05-22T09:52:55Z</time>
      </trkpt>
      <trkpt lat="44.16041" lon="5.32616">
        <ele>1597.37</ele>
        <time>2017-05-22T09:53:08Z</time>
      </trkpt>
      <trkpt lat="44.16045" lon="5.3261">
        <ele>1597.37</ele>
        <time>2017-05-22T09:53:20Z</time>
      </trkpt>
      <trkpt lat="44.1605" lon="5.32602">
        <ele>1598.81</ele>
        <time>2017-05-22T09:53:35Z</time>
      </trkpt>
      <trkpt lat="44.16047" lon="5.32597">
        <ele>1600.73</ele>
        <time>2017-05-22T09:53:46Z</time>
      </trkpt>
      <trkpt lat="44.16052" lon="5.32595">
        <ele>1600.73</ele>
        <time>2017-05-22T09:54:00Z</time>
      </trkpt>
      <trkpt lat="44.16051" lon="5.32596">
        <ele>1600.73</ele>
        <time>2017-05-22T09:54:19Z</time>
      </trkpt>
      <trkpt lat="44.16051" lon="5.32595">
        <ele>1600.73</ele>
        <time>2017-05-22T09:54:39Z</time>
      </trkpt>
      <trkpt lat="44.1605" lon="5.32594">
        <ele>1599.77</ele>
        <time>2017-05-22T09:54:46Z</time>
      </trkpt>
      <trkpt lat="44.16051" lon="5.32595">
        <ele>1599.77</ele>
        <time>2017-05-22T09:55:06Z</time>
      </trkpt>
      <trkpt lat="44.16057" lon="5.32588">
        <ele>1599.77</ele>
        <time>2017-05-22T09:55:20Z</time>
      </trkpt>
      <trkpt lat="44.1606" lon="5.32585">
        <ele>1599.77</ele>
        <time>2017-05-22T09:55:34Z</time>
      </trkpt>
      <trkpt lat="44.16065" lon="5.32577">
        <ele>1599.77</ele>
        <time>2017-05-22T09:55:50Z</time>
      </trkpt>
      <trkpt lat="44.16071" lon="5.32569">
        <ele>1597.37</ele>
        <time>2017-05-22T09:56:08Z</time>
      </trkpt>
      <trkpt lat="44.16076" lon="5.32564">
        <ele>1595.93</ele>
        <time>2017-05-22T09:56:20Z</time>
      </trkpt>
      <trkpt lat="44.16077" lon="5.32556">
        <ele>1596.41</ele>
        <time>2017-05-22T09:56:32Z</time>
      </trkpt>
      <trkpt lat="44.16078" lon="5.32554">
        <ele>1596.41</ele>
        <time>2017-05-22T09:56:47Z</time>
      </trkpt>
      <trkpt lat="44.16083" lon="5.32546">
        <ele>1596.41</ele>
        <time>2017-05-22T09:57:04Z</time>
      </trkpt>
      <trkpt lat="44.16086" lon="5.3254">
        <ele>1595.93</ele>
        <time>2017-05-22T09:57:16Z</time>
      </trkpt>
      <trkpt lat="44.16089" lon="5.32533">
        <ele>1594</ele>
        <time>2017-05-22T09:57:32Z</time>
      </trkpt>
      <trkpt lat="44.1609" lon="5.32532">
        <ele>1593.52</ele>
        <time>2017-05-22T09:57:45Z</time>
      </trkpt>
      <trkpt lat="44.16088" lon="5.32535">
        <ele>1594.96</ele>
        <time>2017-05-22T09:57:57Z</time>
      </trkpt>
      <trkpt lat="44.16087" lon="5.32536">
        <ele>1594.96</ele>
        <time>2017-05-22T09:57:58Z</time>
      </trkpt>
      <trkpt lat="44.16089" lon="5.32535">
        <ele>1595.45</ele>
        <time>2017-05-22T09:58:11Z</time>
      </trkpt>
      <trkpt lat="44.16089" lon="5.32531">
        <ele>1594.48</ele>
        <time>2017-05-22T09:58:23Z</time>
      </trkpt>
      <trkpt lat="44.16088" lon="5.3253">
        <ele>1595.45</ele>
        <time>2017-05-22T09:58:28Z</time>
      </trkpt>
      <trkpt lat="44.16085" lon="5.32532">
        <ele>1597.85</ele>
        <time>2017-05-22T09:58:43Z</time>
      </trkpt>
      <trkpt lat="44.16082" lon="5.3253">
        <ele>1599.29</ele>
        <time>2017-05-22T09:58:52Z</time>
      </trkpt>
      <trkpt lat="44.16082" lon="5.32522">
        <ele>1600.25</ele>
        <time>2017-05-22T09:59:08Z</time>
      </trkpt>
      <trkpt lat="44.16082" lon="5.32516">
        <ele>1600.73</ele>
        <time>2017-05-22T09:59:22Z</time>
      </trkpt>
      <trkpt lat="44.16079" lon="5.32509">
        <ele>1602.66</ele>
        <time>2017-05-22T09:59:36Z</time>
      </trkpt>
      <trkpt lat="44.1608" lon="5.32506">
        <ele>1603.14</ele>
        <time>2017-05-22T09:59:48Z</time>
      </trkpt>
      <trkpt lat="44.16084" lon="5.32498">
        <ele>1603.14</ele>
        <time>2017-05-22T10:00:02Z</time>
      </trkpt>
      <trkpt lat="44.16086" lon="5.32493">
        <ele>1601.69</ele>
        <time>2017-05-22T10:00:15Z</time>
      </trkpt>
      <trkpt lat="44.16089" lon="5.32478">
        <ele>1601.69</ele>
        <time>2017-05-22T10:00:33Z</time>
      </trkpt>
      <trkpt lat="44.16092" lon="5.32463">
        <ele>1601.69</ele>
        <time>2017-05-22T10:00:47Z</time>
      </trkpt>
      <trkpt lat="44.16091" lon="5.32459">
        <ele>1603.14</ele>
        <time>2017-05-22T10:00:53Z</time>
      </trkpt>
      <trkpt lat="44.16086" lon="5.32462">
        <ele>1605.06</ele>
        <time>2017-05-22T10:01:07Z</time>
      </trkpt>
      <trkpt lat="44.1608" lon="5.32461">
        <ele>1607.46</ele>
        <time>2017-05-22T10:01:22Z</time>
      </trkpt>
      <trkpt lat="44.16072" lon="5.32463">
        <ele>1609.86</ele>
        <time>2017-05-22T10:01:35Z</time>
      </trkpt>
      <trkpt lat="44.16067" lon="5.32456">
        <ele>1612.27</ele>
        <time>2017-05-22T10:01:49Z</time>
      </trkpt>
      <trkpt lat="44.16064" lon="5.32453">
        <ele>1613.71</ele>
        <time>2017-05-22T10:01:54Z</time>
      </trkpt>
      <trkpt lat="44.16059" lon="5.32441">
        <ele>1615.15</ele>
        <time>2017-05-22T10:02:09Z</time>
      </trkpt>
      <trkpt lat="44.16058" lon="5.32435">
        <ele>1615.15</ele>
        <time>2017-05-22T10:02:25Z</time>
      </trkpt>
      <trkpt lat="44.16057" lon="5.32435">
        <ele>1615.15</ele>
        <time>2017-05-22T10:02:38Z</time>
      </trkpt>
      <trkpt lat="44.16055" lon="5.32435">
        <ele>1615.15</ele>
        <time>2017-05-22T10:02:52Z</time>
      </trkpt>
      <trkpt lat="44.16051" lon="5.32431">
        <ele>1615.63</ele>
        <time>2017-05-22T10:03:03Z</time>
      </trkpt>
      <trkpt lat="44.16052" lon="5.3243">
        <ele>1615.63</ele>
        <time>2017-05-22T10:03:13Z</time>
      </trkpt>
      <trkpt lat="44.16044" lon="5.32434">
        <ele>1615.63</ele>
        <time>2017-05-22T10:03:26Z</time>
      </trkpt>
      <trkpt lat="44.16039" lon="5.32432">
        <ele>1615.63</ele>
        <time>2017-05-22T10:03:38Z</time>
      </trkpt>
      <trkpt lat="44.1603" lon="5.32436">
        <ele>1615.63</ele>
        <time>2017-05-22T10:03:50Z</time>
      </trkpt>
      <trkpt lat="44.16029" lon="5.32437">
        <ele>1616.11</ele>
        <time>2017-05-22T10:04:01Z</time>
      </trkpt>
      <trkpt lat="44.16024" lon="5.32443">
        <ele>1616.11</ele>
        <time>2017-05-22T10:04:13Z</time>
      </trkpt>
      <trkpt lat="44.16022" lon="5.32443">
        <ele>1615.15</ele>
        <time>2017-05-22T10:04:23Z</time>
      </trkpt>
      <trkpt lat="44.16019" lon="5.32438">
        <ele>1615.15</ele>
        <time>2017-05-22T10:04:37Z</time>
      </trkpt>
      <trkpt lat="44.16014" lon="5.32432">
        <ele>1615.15</ele>
        <time>2017-05-22T10:04:48Z</time>
      </trkpt>
      <trkpt lat="44.16014" lon="5.32432">
        <ele>1615.15</ele>
        <time>2017-05-22T10:04:49Z</time>
      </trkpt>
      <trkpt lat="44.16011" lon="5.3243">
        <ele>1614.19</ele>
        <time>2017-05-22T10:04:52Z</time>
      </trkpt>
      <trkpt lat="44.16009" lon="5.3243">
        <ele>1614.19</ele>
        <time>2017-05-22T10:04:55Z</time>
      </trkpt>
      <trkpt lat="44.16007" lon="5.32428">
        <ele>1614.19</ele>
        <time>2017-05-22T10:04:57Z</time>
      </trkpt>
      <trkpt lat="44.16001" lon="5.32428">
        <ele>1614.19</ele>
        <time>2017-05-22T10:05:04Z</time>
      </trkpt>
      <trkpt lat="44.15994" lon="5.32429">
        <ele>1614.19</ele>
        <time>2017-05-22T10:05:11Z</time>
      </trkpt>
      <trkpt lat="44.1599" lon="5.32432">
        <ele>1614.67</ele>
        <time>2017-05-22T10:05:23Z</time>
      </trkpt>
      <trkpt lat="44.1599" lon="5.32429">
        <ele>1614.67</ele>
        <time>2017-05-22T10:05:48Z</time>
      </trkpt>
      <trkpt lat="44.15991" lon="5.32417">
        <ele>1614.19</ele>
        <time>2017-05-22T10:06:02Z</time>
      </trkpt>
      <trkpt lat="44.15993" lon="5.32413">
        <ele>1614.19</ele>
        <time>2017-05-22T10:06:19Z</time>
      </trkpt>
      <trkpt lat="44.15993" lon="5.32415">
        <ele>1614.19</ele>
        <time>2017-05-22T10:06:39Z</time>
      </trkpt>
      <trkpt lat="44.15992" lon="5.32413">
        <ele>1613.71</ele>
        <time>2017-05-22T10:07:10Z</time>
      </trkpt>
      <trkpt lat="44.15992" lon="5.32402">
        <ele>1613.71</ele>
        <time>2017-05-22T10:07:25Z</time>
      </trkpt>
      <trkpt lat="44.15993" lon="5.32383">
        <ele>1611.79</ele>
        <time>2017-05-22T10:07:44Z</time>
      </trkpt>
      <trkpt lat="44.15994" lon="5.32366">
        <ele>1610.35</ele>
        <time>2017-05-22T10:08:01Z</time>
      </trkpt>
      <trkpt lat="44.15994" lon="5.32348">
        <ele>1609.38</ele>
        <time>2017-05-22T10:08:17Z</time>
      </trkpt>
      <trkpt lat="44.15996" lon="5.32332">
        <ele>1607.94</ele>
        <time>2017-05-22T10:08:33Z</time>
      </trkpt>
      <trkpt lat="44.15998" lon="5.32315">
        <ele>1606.98</ele>
        <time>2017-05-22T10:08:51Z</time>
      </trkpt>
      <trkpt lat="44.15997" lon="5.32296">
        <ele>1606.5</ele>
        <time>2017-05-22T10:09:10Z</time>
      </trkpt>
      <trkpt lat="44.15996" lon="5.32292">
        <ele>1605.54</ele>
        <time>2017-05-22T10:09:32Z</time>
      </trkpt>
      <trkpt lat="44.15996" lon="5.32294">
        <ele>1605.54</ele>
        <time>2017-05-22T10:09:53Z</time>
      </trkpt>
      <trkpt lat="44.15996" lon="5.32294">
        <ele>1606.98</ele>
        <time>2017-05-22T10:09:57Z</time>
      </trkpt>
      <trkpt lat="44.15996" lon="5.32296">
        <ele>1605.54</ele>
        <time>2017-05-22T10:10:08Z</time>
      </trkpt>
      <trkpt lat="44.15998" lon="5.32296">
        <ele>1605.54</ele>
        <time>2017-05-22T10:10:26Z</time>
      </trkpt>
      <trkpt lat="44.15998" lon="5.32296">
        <ele>1605.06</ele>
        <time>2017-05-22T10:10:45Z</time>
      </trkpt>
      <trkpt lat="44.15998" lon="5.32295">
        <ele>1605.06</ele>
        <time>2017-05-22T10:11:11Z</time>
      </trkpt>
      <trkpt lat="44.15998" lon="5.32294">
        <ele>1605.06</ele>
        <time>2017-05-22T10:11:30Z</time>
      </trkpt>
      <trkpt lat="44.15999" lon="5.32296">
        <ele>1605.06</ele>
        <time>2017-05-22T10:12:01Z</time>
      </trkpt>
      <trkpt lat="44.15999" lon="5.32295">
        <ele>1605.06</ele>
        <time>2017-05-22T10:12:26Z</time>
      </trkpt>
      <trkpt lat="44.15999" lon="5.32296">
        <ele>1605.54</ele>
        <time>2017-05-22T10:13:08Z</time>
      </trkpt>
      <trkpt lat="44.16001" lon="5.32294">
        <ele>1605.54</ele>
        <time>2017-05-22T10:13:43Z</time>
      </trkpt>
      <trkpt lat="44.15999" lon="5.32296">
        <ele>1605.54</ele>
        <time>2017-05-22T10:14:22Z</time>
      </trkpt>
      <trkpt lat="44.15999" lon="5.32298">
        <ele>1606.02</ele>
        <time>2017-05-22T10:14:51Z</time>
      </trkpt>
      <trkpt lat="44.15999" lon="5.32298">
        <ele>1606.02</ele>
        <time>2017-05-22T10:15:25Z</time>
      </trkpt>
      <trkpt lat="44.15997" lon="5.32298">
        <ele>1606.5</ele>
        <time>2017-05-22T10:15:58Z</time>
      </trkpt>
      <trkpt lat="44.15996" lon="5.32299">
        <ele>1606.5</ele>
        <time>2017-05-22T10:16:32Z</time>
      </trkpt>
      <trkpt lat="44.15998" lon="5.32297">
        <ele>1606.02</ele>
        <time>2017-05-22T10:17:07Z</time>
      </trkpt>
      <trkpt lat="44.15998" lon="5.32297">
        <ele>1606.5</ele>
        <time>2017-05-22T10:17:54Z</time>
      </trkpt>
      <trkpt lat="44.15996" lon="5.32297">
        <ele>1606.5</ele>
        <time>2017-05-22T10:18:31Z</time>
      </trkpt>
      <trkpt lat="44.15995" lon="5.32297">
        <ele>1606.5</ele>
        <time>2017-05-22T10:19:07Z</time>
      </trkpt>
      <trkpt lat="44.15996" lon="5.32297">
        <ele>1606.5</ele>
        <time>2017-05-22T10:19:40Z</time>
      </trkpt>
      <trkpt lat="44.15997" lon="5.32296">
        <ele>1606.5</ele>
        <time>2017-05-22T10:20:14Z</time>
      </trkpt>
      <trkpt lat="44.15997" lon="5.32295">
        <ele>1606.98</ele>
        <time>2017-05-22T10:20:55Z</time>
      </trkpt>
      <trkpt lat="44.15996" lon="5.32296">
        <ele>1606.98</ele>
        <time>2017-05-22T10:21:16Z</time>
      </trkpt>
      <trkpt lat="44.15994" lon="5.32297">
        <ele>1606.98</ele>
        <time>2017-05-22T10:21:44Z</time>
      </trkpt>
      <trkpt lat="44.15996" lon="5.32296">
        <ele>1606.98</ele>
        <time>2017-05-22T10:22:11Z</time>
      </trkpt>
      <trkpt lat="44.15999" lon="5.32294">
        <ele>1606.98</ele>
        <time>2017-05-22T10:22:34Z</time>
      </trkpt>
      <trkpt lat="44.15999" lon="5.32296">
        <ele>1606.98</ele>
        <time>2017-05-22T10:22:55Z</time>
      </trkpt>
      <trkpt lat="44.15996" lon="5.32297">
        <ele>1606.98</ele>
        <time>2017-05-22T10:23:37Z</time>
      </trkpt>
      <trkpt lat="44.15997" lon="5.32298">
        <ele>1606.98</ele>
        <time>2017-05-22T10:23:57Z</time>
      </trkpt>
      <trkpt lat="44.15997" lon="5.32298">
        <ele>1606.98</ele>
        <time>2017-05-22T10:24:18Z</time>
      </trkpt>
      <trkpt lat="44.15997" lon="5.32298">
        <ele>1606.98</ele>
        <time>2017-05-22T10:24:39Z</time>
      </trkpt>
      <trkpt lat="44.15995" lon="5.32299">
        <ele>1607.46</ele>
        <time>2017-05-22T10:25:12Z</time>
      </trkpt>
      <trkpt lat="44.15995" lon="5.32297">
        <ele>1607.46</ele>
        <time>2017-05-22T10:25:48Z</time>
      </trkpt>
      <trkpt lat="44.15996" lon="5.32297">
        <ele>1607.46</ele>
        <time>2017-05-22T10:26:10Z</time>
      </trkpt>
      <trkpt lat="44.15998" lon="5.32297">
        <ele>1607.46</ele>
        <time>2017-05-22T10:26:45Z</time>
      </trkpt>
      <trkpt lat="44.15999" lon="5.32299">
        <ele>1607.46</ele>
        <time>2017-05-22T10:27:19Z</time>
      </trkpt>
      <trkpt lat="44.15997" lon="5.32301">
        <ele>1607.46</ele>
        <time>2017-05-22T10:27:51Z</time>
      </trkpt>
      <trkpt lat="44.15997" lon="5.323">
        <ele>1603.62</ele>
        <time>2017-05-22T10:28:16Z</time>
      </trkpt>
      <trkpt lat="44.15997" lon="5.323">
        <ele>1611.79</ele>
        <time>2017-05-22T10:28:17Z</time>
      </trkpt>
      <trkpt lat="44.15997" lon="5.323">
        <ele>1606.98</ele>
        <time>2017-05-22T10:28:18Z</time>
      </trkpt>
      <trkpt lat="44.15997" lon="5.32299">
        <ele>1610.83</ele>
        <time>2017-05-22T10:28:38Z</time>
      </trkpt>
      <trkpt lat="44.15999" lon="5.32297">
        <ele>1608.42</ele>
        <time>2017-05-22T10:29:10Z</time>
      </trkpt>
      <trkpt lat="44.16" lon="5.32297">
        <ele>1608.42</ele>
        <time>2017-05-22T10:29:43Z</time>
      </trkpt>
      <trkpt lat="44.16001" lon="5.32297">
        <ele>1608.42</ele>
        <time>2017-05-22T10:30:24Z</time>
      </trkpt>
      <trkpt lat="44.16" lon="5.32296">
        <ele>1608.42</ele>
        <time>2017-05-22T10:30:49Z</time>
      </trkpt>
      <trkpt lat="44.16001" lon="5.32297">
        <ele>1606.5</ele>
        <time>2017-05-22T10:31:00Z</time>
      </trkpt>
      <trkpt lat="44.16001" lon="5.32297">
        <ele>1609.38</ele>
        <time>2017-05-22T10:31:04Z</time>
      </trkpt>
      <trkpt lat="44.16" lon="5.32297">
        <ele>1607.94</ele>
        <time>2017-05-22T10:31:06Z</time>
      </trkpt>
      <trkpt lat="44.15999" lon="5.32297">
        <ele>1609.38</ele>
        <time>2017-05-22T10:31:29Z</time>
      </trkpt>
      <trkpt lat="44.16001" lon="5.32298">
        <ele>1608.9</ele>
        <time>2017-05-22T10:31:59Z</time>
      </trkpt>
      <trkpt lat="44.16" lon="5.32298">
        <ele>1608.9</ele>
        <time>2017-05-22T10:32:32Z</time>
      </trkpt>
      <trkpt lat="44.16" lon="5.32298">
        <ele>1607.94</ele>
        <time>2017-05-22T10:32:47Z</time>
      </trkpt>
      <trkpt lat="44.16002" lon="5.32298">
        <ele>1607.94</ele>
        <time>2017-05-22T10:33:19Z</time>
      </trkpt>
      <trkpt lat="44.16002" lon="5.32298">
        <ele>1603.62</ele>
        <time>2017-05-22T10:33:37Z</time>
      </trkpt>
      <trkpt lat="44.16002" lon="5.32298">
        <ele>1605.54</ele>
        <time>2017-05-22T10:33:38Z</time>
      </trkpt>
      <trkpt lat="44.16001" lon="5.32299">
        <ele>1608.9</ele>
        <time>2017-05-22T10:33:48Z</time>
      </trkpt>
      <trkpt lat="44.16001" lon="5.32299">
        <ele>1604.1</ele>
        <time>2017-05-22T10:33:52Z</time>
      </trkpt>
      <trkpt lat="44.16001" lon="5.32298">
        <ele>1610.35</ele>
        <time>2017-05-22T10:33:54Z</time>
      </trkpt>
      <trkpt lat="44.16001" lon="5.32298">
        <ele>1607.94</ele>
        <time>2017-05-22T10:33:55Z</time>
      </trkpt>
      <trkpt lat="44.15999" lon="5.32298">
        <ele>1607.94</ele>
        <time>2017-05-22T10:34:33Z</time>
      </trkpt>
      <trkpt lat="44.15999" lon="5.32299">
        <ele>1608.42</ele>
        <time>2017-05-22T10:35:12Z</time>
      </trkpt>
      <trkpt lat="44.15999" lon="5.323">
        <ele>1608.42</ele>
        <time>2017-05-22T10:35:52Z</time>
      </trkpt>
      <trkpt lat="44.15997" lon="5.32301">
        <ele>1608.42</ele>
        <time>2017-05-22T10:36:44Z</time>
      </trkpt>
      <trkpt lat="44.15998" lon="5.323">
        <ele>1608.42</ele>
        <time>2017-05-22T10:37:25Z</time>
      </trkpt>
      <trkpt lat="44.15999" lon="5.323">
        <ele>1608.9</ele>
        <time>2017-05-22T10:37:57Z</time>
      </trkpt>
      <trkpt lat="44.16" lon="5.32298">
        <ele>1608.9</ele>
        <time>2017-05-22T10:38:34Z</time>
      </trkpt>
      <trkpt lat="44.15998" lon="5.32298">
        <ele>1608.9</ele>
        <time>2017-05-22T10:39:11Z</time>
      </trkpt>
      <trkpt lat="44.15997" lon="5.32301">
        <ele>1608.9</ele>
        <time>2017-05-22T10:39:52Z</time>
      </trkpt>
      <trkpt lat="44.15996" lon="5.323">
        <ele>1608.9</ele>
        <time>2017-05-22T10:40:31Z</time>
      </trkpt>
      <trkpt lat="44.15997" lon="5.32299">
        <ele>1608.9</ele>
        <time>2017-05-22T10:41:16Z</time>
      </trkpt>
      <trkpt lat="44.15999" lon="5.323">
        <ele>1608.9</ele>
        <time>2017-05-22T10:41:58Z</time>
      </trkpt>
      <trkpt lat="44.15997" lon="5.32302">
        <ele>1608.9</ele>
        <time>2017-05-22T10:42:36Z</time>
      </trkpt>
      <trkpt lat="44.15999" lon="5.323">
        <ele>1609.38</ele>
        <time>2017-05-22T10:43:20Z</time>
      </trkpt>
      <trkpt lat="44.15999" lon="5.32299">
        <ele>1609.38</ele>
        <time>2017-05-22T10:44:03Z</time>
      </trkpt>
      <trkpt lat="44.15999" lon="5.323">
        <ele>1609.38</ele>
        <time>2017-05-22T10:44:41Z</time>
      </trkpt>
      <trkpt lat="44.15999" lon="5.32301">
        <ele>1609.38</ele>
        <time>2017-05-22T10:45:23Z</time>
      </trkpt>
      <trkpt lat="44.16" lon="5.32299">
        <ele>1609.38</ele>
        <time>2017-05-22T10:46:00Z</time>
      </trkpt>
      <trkpt lat="44.15999" lon="5.323">
        <ele>1609.38</ele>
        <time>2017-05-22T10:46:37Z</time>
      </trkpt>
      <trkpt lat="44.15998" lon="5.323">
        <ele>1609.38</ele>
        <time>2017-05-22T10:47:09Z</time>
      </trkpt>
      <trkpt lat="44.15997" lon="5.323">
        <ele>1609.38</ele>
        <time>2017-05-22T10:47:49Z</time>
      </trkpt>
      <trkpt lat="44.15998" lon="5.32301">
        <ele>1609.38</ele>
        <time>2017-05-22T10:48:25Z</time>
      </trkpt>
      <trkpt lat="44.15998" lon="5.32301">
        <ele>1609.38</ele>
        <time>2017-05-22T10:49:06Z</time>
      </trkpt>
      <trkpt lat="44.15998" lon="5.32301">
        <ele>1609.38</ele>
        <time>2017-05-22T10:49:48Z</time>
      </trkpt>
      <trkpt lat="44.15997" lon="5.32299">
        <ele>1610.35</ele>
        <time>2017-05-22T10:50:30Z</time>
      </trkpt>
      <trkpt lat="44.15997" lon="5.32297">
        <ele>1611.31</ele>
        <time>2017-05-22T10:51:06Z</time>
      </trkpt>
      <trkpt lat="44.15997" lon="5.32296">
        <ele>1609.86</ele>
        <time>2017-05-22T10:51:24Z</time>
      </trkpt>
      <trkpt lat="44.15996" lon="5.32298">
        <ele>1609.38</ele>
        <time>2017-05-22T10:52:00Z</time>
      </trkpt>
      <trkpt lat="44.15996" lon="5.32299">
        <ele>1609.38</ele>
        <time>2017-05-22T10:52:40Z</time>
      </trkpt>
      <trkpt lat="44.15997" lon="5.32298">
        <ele>1613.23</ele>
        <time>2017-05-22T10:53:15Z</time>
      </trkpt>
      <trkpt lat="44.15997" lon="5.32298">
        <ele>1611.31</ele>
        <time>2017-05-22T10:53:16Z</time>
      </trkpt>
      <trkpt lat="44.15995" lon="5.32296">
        <ele>1610.35</ele>
        <time>2017-05-22T10:53:27Z</time>
      </trkpt>
      <trkpt lat="44.15996" lon="5.32296">
        <ele>1612.27</ele>
        <time>2017-05-22T10:53:34Z</time>
      </trkpt>
      <trkpt lat="44.15997" lon="5.32295">
        <ele>1610.35</ele>
        <time>2017-05-22T10:53:55Z</time>
      </trkpt>
      <trkpt lat="44.15999" lon="5.32295">
        <ele>1611.79</ele>
        <time>2017-05-22T10:54:05Z</time>
      </trkpt>
      <trkpt lat="44.16001" lon="5.32296">
        <ele>1608.42</ele>
        <time>2017-05-22T10:54:07Z</time>
      </trkpt>
      <trkpt lat="44.16001" lon="5.32296">
        <ele>1615.15</ele>
        <time>2017-05-22T10:54:08Z</time>
      </trkpt>
      <trkpt lat="44.16002" lon="5.32296">
        <ele>1611.31</ele>
        <time>2017-05-22T10:54:09Z</time>
      </trkpt>
      <trkpt lat="44.16002" lon="5.32307">
        <ele>1611.31</ele>
        <time>2017-05-22T10:54:22Z</time>
      </trkpt>
      <trkpt lat="44.16" lon="5.32322">
        <ele>1611.31</ele>
        <time>2017-05-22T10:54:39Z</time>
      </trkpt>
      <trkpt lat="44.15999" lon="5.32331">
        <ele>1612.75</ele>
        <time>2017-05-22T10:54:48Z</time>
      </trkpt>
      <trkpt lat="44.15996" lon="5.32349">
        <ele>1613.23</ele>
        <time>2017-05-22T10:55:05Z</time>
      </trkpt>
      <trkpt lat="44.15994" lon="5.32371">
        <ele>1615.15</ele>
        <time>2017-05-22T10:55:25Z</time>
      </trkpt>
      <trkpt lat="44.15993" lon="5.32386">
        <ele>1616.59</ele>
        <time>2017-05-22T10:55:41Z</time>
      </trkpt>
      <trkpt lat="44.15993" lon="5.32402">
        <ele>1618.04</ele>
        <time>2017-05-22T10:55:58Z</time>
      </trkpt>
      <trkpt lat="44.15993" lon="5.32419">
        <ele>1619.48</ele>
        <time>2017-05-22T10:56:16Z</time>
      </trkpt>
      <trkpt lat="44.15991" lon="5.32424">
        <ele>1619.96</ele>
        <time>2017-05-22T10:56:32Z</time>
      </trkpt>
      <trkpt lat="44.15992" lon="5.32425">
        <ele>1619.96</ele>
        <time>2017-05-22T10:56:54Z</time>
      </trkpt>
      <trkpt lat="44.15992" lon="5.32425">
        <ele>1619.96</ele>
        <time>2017-05-22T10:57:21Z</time>
      </trkpt>
      <trkpt lat="44.15993" lon="5.32427">
        <ele>1619.96</ele>
        <time>2017-05-22T10:57:41Z</time>
      </trkpt>
      <trkpt lat="44.15993" lon="5.32435">
        <ele>1620.44</ele>
        <time>2017-05-22T10:58:00Z</time>
      </trkpt>
      <trkpt lat="44.1599" lon="5.32456">
        <ele>1620.44</ele>
        <time>2017-05-22T10:58:18Z</time>
      </trkpt>
      <trkpt lat="44.1599" lon="5.3246">
        <ele>1619</ele>
        <time>2017-05-22T10:58:21Z</time>
      </trkpt>
      <trkpt lat="44.1599" lon="5.32463">
        <ele>1619</ele>
        <time>2017-05-22T10:58:38Z</time>
      </trkpt>
      <trkpt lat="44.15989" lon="5.32477">
        <ele>1618.52</ele>
        <time>2017-05-22T10:58:57Z</time>
      </trkpt>
      <trkpt lat="44.15988" lon="5.32504">
        <ele>1617.56</ele>
        <time>2017-05-22T10:59:19Z</time>
      </trkpt>
      <trkpt lat="44.15987" lon="5.32525">
        <ele>1617.07</ele>
        <time>2017-05-22T10:59:38Z</time>
      </trkpt>
      <trkpt lat="44.15984" lon="5.32552">
        <ele>1616.59</ele>
        <time>2017-05-22T10:59:59Z</time>
      </trkpt>
      <trkpt lat="44.15979" lon="5.32578">
        <ele>1616.11</ele>
        <time>2017-05-22T11:00:20Z</time>
      </trkpt>
      <trkpt lat="44.15976" lon="5.32598">
        <ele>1615.63</ele>
        <time>2017-05-22T11:00:37Z</time>
      </trkpt>
      <trkpt lat="44.15971" lon="5.32614">
        <ele>1614.19</ele>
        <time>2017-05-22T11:00:52Z</time>
      </trkpt>
      <trkpt lat="44.15968" lon="5.32629">
        <ele>1613.23</ele>
        <time>2017-05-22T11:01:06Z</time>
      </trkpt>
      <trkpt lat="44.15962" lon="5.32644">
        <ele>1611.79</ele>
        <time>2017-05-22T11:01:24Z</time>
      </trkpt>
      <trkpt lat="44.15955" lon="5.32658">
        <ele>1609.38</ele>
        <time>2017-05-22T11:01:40Z</time>
      </trkpt>
      <trkpt lat="44.15949" lon="5.32671">
        <ele>1607.94</ele>
        <time>2017-05-22T11:01:55Z</time>
      </trkpt>
      <trkpt lat="44.15943" lon="5.32681">
        <ele>1606.02</ele>
        <time>2017-05-22T11:02:10Z</time>
      </trkpt>
      <trkpt lat="44.15935" lon="5.327">
        <ele>1603.14</ele>
        <time>2017-05-22T11:02:28Z</time>
      </trkpt>
      <trkpt lat="44.15933" lon="5.32717">
        <ele>1601.21</ele>
        <time>2017-05-22T11:02:46Z</time>
      </trkpt>
      <trkpt lat="44.15931" lon="5.32736">
        <ele>1598.33</ele>
        <time>2017-05-22T11:03:06Z</time>
      </trkpt>
      <trkpt lat="44.15929" lon="5.32753">
        <ele>1596.41</ele>
        <time>2017-05-22T11:03:20Z</time>
      </trkpt>
      <trkpt lat="44.15929" lon="5.3277">
        <ele>1594.48</ele>
        <time>2017-05-22T11:03:35Z</time>
      </trkpt>
      <trkpt lat="44.15929" lon="5.32786">
        <ele>1592.56</ele>
        <time>2017-05-22T11:03:51Z</time>
      </trkpt>
      <trkpt lat="44.15925" lon="5.32803">
        <ele>1591.12</ele>
        <time>2017-05-22T11:04:05Z</time>
      </trkpt>
      <trkpt lat="44.15919" lon="5.32829">
        <ele>1589.68</ele>
        <time>2017-05-22T11:04:26Z</time>
      </trkpt>
      <trkpt lat="44.15914" lon="5.32854">
        <ele>1588.24</ele>
        <time>2017-05-22T11:04:44Z</time>
      </trkpt>
      <trkpt lat="44.15912" lon="5.32873">
        <ele>1587.75</ele>
        <time>2017-05-22T11:04:59Z</time>
      </trkpt>
      <trkpt lat="44.1591" lon="5.32892">
        <ele>1585.83</ele>
        <time>2017-05-22T11:05:14Z</time>
      </trkpt>
      <trkpt lat="44.15903" lon="5.3291">
        <ele>1584.39</ele>
        <time>2017-05-22T11:05:30Z</time>
      </trkpt>
      <trkpt lat="44.15894" lon="5.32926">
        <ele>1582.95</ele>
        <time>2017-05-22T11:05:45Z</time>
      </trkpt>
      <trkpt lat="44.15886" lon="5.32947">
        <ele>1580.06</ele>
        <time>2017-05-22T11:06:05Z</time>
      </trkpt>
      <trkpt lat="44.1588" lon="5.32967">
        <ele>1578.62</ele>
        <time>2017-05-22T11:06:21Z</time>
      </trkpt>
      <trkpt lat="44.15878" lon="5.32978">
        <ele>1578.14</ele>
        <time>2017-05-22T11:06:40Z</time>
      </trkpt>
      <trkpt lat="44.15879" lon="5.3298">
        <ele>1578.14</ele>
        <time>2017-05-22T11:07:00Z</time>
      </trkpt>
      <trkpt lat="44.15881" lon="5.3298">
        <ele>1578.14</ele>
        <time>2017-05-22T11:07:25Z</time>
      </trkpt>
      <trkpt lat="44.15878" lon="5.32983">
        <ele>1578.14</ele>
        <time>2017-05-22T11:07:45Z</time>
      </trkpt>
      <trkpt lat="44.15881" lon="5.32979">
        <ele>1578.14</ele>
        <time>2017-05-22T11:08:06Z</time>
      </trkpt>
      <trkpt lat="44.15883" lon="5.32979">
        <ele>1578.14</ele>
        <time>2017-05-22T11:08:28Z</time>
      </trkpt>
      <trkpt lat="44.15882" lon="5.32978">
        <ele>1578.14</ele>
        <time>2017-05-22T11:08:53Z</time>
      </trkpt>
      <trkpt lat="44.15883" lon="5.32977">
        <ele>1578.14</ele>
        <time>2017-05-22T11:09:14Z</time>
      </trkpt>
      <trkpt lat="44.1588" lon="5.32979">
        <ele>1578.14</ele>
        <time>2017-05-22T11:09:48Z</time>
      </trkpt>
      <trkpt lat="44.15882" lon="5.32983">
        <ele>1578.14</ele>
        <time>2017-05-22T11:10:18Z</time>
      </trkpt>
      <trkpt lat="44.15877" lon="5.32984">
        <ele>1578.14</ele>
        <time>2017-05-22T11:10:42Z</time>
      </trkpt>
      <trkpt lat="44.15874" lon="5.33001">
        <ele>1578.14</ele>
        <time>2017-05-22T11:10:58Z</time>
      </trkpt>
      <trkpt lat="44.15867" lon="5.33018">
        <ele>1577.66</ele>
        <time>2017-05-22T11:11:14Z</time>
      </trkpt>
      <trkpt lat="44.15859" lon="5.33037">
        <ele>1577.66</ele>
        <time>2017-05-22T11:11:31Z</time>
      </trkpt>
      <trkpt lat="44.15852" lon="5.33058">
        <ele>1577.66</ele>
        <time>2017-05-22T11:11:48Z</time>
      </trkpt>
      <trkpt lat="44.15844" lon="5.33076">
        <ele>1579.1</ele>
        <time>2017-05-22T11:12:04Z</time>
      </trkpt>
      <trkpt lat="44.1583" lon="5.33086">
        <ele>1580.06</ele>
        <time>2017-05-22T11:12:22Z</time>
      </trkpt>
      <trkpt lat="44.15823" lon="5.33094">
        <ele>1581.03</ele>
        <time>2017-05-22T11:12:39Z</time>
      </trkpt>
      <trkpt lat="44.15812" lon="5.33112">
        <ele>1582.47</ele>
        <time>2017-05-22T11:12:58Z</time>
      </trkpt>
      <trkpt lat="44.15808" lon="5.33118">
        <ele>1582.95</ele>
        <time>2017-05-22T11:13:04Z</time>
      </trkpt>
      <trkpt lat="44.15797" lon="5.33137">
        <ele>1584.39</ele>
        <time>2017-05-22T11:13:24Z</time>
      </trkpt>
      <trkpt lat="44.15787" lon="5.33162">
        <ele>1585.83</ele>
        <time>2017-05-22T11:13:45Z</time>
      </trkpt>
      <trkpt lat="44.15778" lon="5.33175">
        <ele>1586.79</ele>
        <time>2017-05-22T11:14:04Z</time>
      </trkpt>
      <trkpt lat="44.15779" lon="5.33176">
        <ele>1586.79</ele>
        <time>2017-05-22T11:14:25Z</time>
      </trkpt>
      <trkpt lat="44.15777" lon="5.33179">
        <ele>1586.79</ele>
        <time>2017-05-22T11:14:35Z</time>
      </trkpt>
      <trkpt lat="44.15776" lon="5.33179">
        <ele>1586.31</ele>
        <time>2017-05-22T11:14:57Z</time>
      </trkpt>
      <trkpt lat="44.15763" lon="5.33175">
        <ele>1585.35</ele>
        <time>2017-05-22T11:15:14Z</time>
      </trkpt>
      <trkpt lat="44.15757" lon="5.33165">
        <ele>1584.87</ele>
        <time>2017-05-22T11:15:31Z</time>
      </trkpt>
      <trkpt lat="44.15763" lon="5.3316">
        <ele>1584.87</ele>
        <time>2017-05-22T11:15:45Z</time>
      </trkpt>
      <trkpt lat="44.15772" lon="5.33145">
        <ele>1584.87</ele>
        <time>2017-05-22T11:16:03Z</time>
      </trkpt>
      <trkpt lat="44.15775" lon="5.33138">
        <ele>1584.87</ele>
        <time>2017-05-22T11:16:18Z</time>
      </trkpt>
      <trkpt lat="44.1579" lon="5.33135">
        <ele>1584.87</ele>
        <time>2017-05-22T11:16:35Z</time>
      </trkpt>
      <trkpt lat="44.15803" lon="5.33124">
        <ele>1583.43</ele>
        <time>2017-05-22T11:16:53Z</time>
      </trkpt>
      <trkpt lat="44.15815" lon="5.33104">
        <ele>1581.03</ele>
        <time>2017-05-22T11:17:14Z</time>
      </trkpt>
      <trkpt lat="44.1582" lon="5.33086">
        <ele>1578.62</ele>
        <time>2017-05-22T11:17:32Z</time>
      </trkpt>
      <trkpt lat="44.1582" lon="5.33081">
        <ele>1578.14</ele>
        <time>2017-05-22T11:17:44Z</time>
      </trkpt>
      <trkpt lat="44.1582" lon="5.33078">
        <ele>1577.18</ele>
        <time>2017-05-22T11:18:08Z</time>
      </trkpt>
      <trkpt lat="44.15822" lon="5.3308">
        <ele>1578.14</ele>
        <time>2017-05-22T11:18:31Z</time>
      </trkpt>
      <trkpt lat="44.15821" lon="5.33082">
        <ele>1573.82</ele>
        <time>2017-05-22T11:18:37Z</time>
      </trkpt>
      <trkpt lat="44.15821" lon="5.33082">
        <ele>1579.1</ele>
        <time>2017-05-22T11:18:38Z</time>
      </trkpt>
      <trkpt lat="44.15821" lon="5.33084">
        <ele>1577.66</ele>
        <time>2017-05-22T11:18:59Z</time>
      </trkpt>
      <trkpt lat="44.15824" lon="5.33085">
        <ele>1577.66</ele>
        <time>2017-05-22T11:19:24Z</time>
      </trkpt>
      <trkpt lat="44.15826" lon="5.33082">
        <ele>1577.66</ele>
        <time>2017-05-22T11:19:48Z</time>
      </trkpt>
      <trkpt lat="44.15821" lon="5.33081">
        <ele>1577.66</ele>
        <time>2017-05-22T11:20:04Z</time>
      </trkpt>
      <trkpt lat="44.15821" lon="5.3308">
        <ele>1577.18</ele>
        <time>2017-05-22T11:20:31Z</time>
      </trkpt>
      <trkpt lat="44.15819" lon="5.33079">
        <ele>1578.62</ele>
        <time>2017-05-22T11:21:05Z</time>
      </trkpt>
      <trkpt lat="44.15819" lon="5.3308">
        <ele>1578.62</ele>
        <time>2017-05-22T11:21:33Z</time>
      </trkpt>
      <trkpt lat="44.15819" lon="5.33079">
        <ele>1578.62</ele>
        <time>2017-05-22T11:21:57Z</time>
      </trkpt>
      <trkpt lat="44.15817" lon="5.3308">
        <ele>1577.18</ele>
        <time>2017-05-22T11:22:23Z</time>
      </trkpt>
      <trkpt lat="44.15817" lon="5.33081">
        <ele>1577.18</ele>
        <time>2017-05-22T11:22:24Z</time>
      </trkpt>
      <trkpt lat="44.15809" lon="5.33081">
        <ele>1576.22</ele>
        <time>2017-05-22T11:22:39Z</time>
      </trkpt>
      <trkpt lat="44.15799" lon="5.33082">
        <ele>1575.74</ele>
        <time>2017-05-22T11:22:55Z</time>
      </trkpt>
      <trkpt lat="44.15788" lon="5.33095">
        <ele>1575.26</ele>
        <time>2017-05-22T11:23:14Z</time>
      </trkpt>
      <trkpt lat="44.15778" lon="5.33108">
        <ele>1575.26</ele>
        <time>2017-05-22T11:23:30Z</time>
      </trkpt>
      <trkpt lat="44.15768" lon="5.33122">
        <ele>1575.26</ele>
        <time>2017-05-22T11:23:46Z</time>
      </trkpt>
      <trkpt lat="44.15753" lon="5.33135">
        <ele>1575.26</ele>
        <time>2017-05-22T11:24:06Z</time>
      </trkpt>
      <trkpt lat="44.1574" lon="5.33145">
        <ele>1574.78</ele>
        <time>2017-05-22T11:24:22Z</time>
      </trkpt>
      <trkpt lat="44.15729" lon="5.33154">
        <ele>1572.85</ele>
        <time>2017-05-22T11:24:38Z</time>
      </trkpt>
      <trkpt lat="44.15716" lon="5.33168">
        <ele>1571.41</ele>
        <time>2017-05-22T11:24:56Z</time>
      </trkpt>
      <trkpt lat="44.15708" lon="5.33188">
        <ele>1571.41</ele>
        <time>2017-05-22T11:25:13Z</time>
      </trkpt>
      <trkpt lat="44.157" lon="5.33207">
        <ele>1570.93</ele>
        <time>2017-05-22T11:25:30Z</time>
      </trkpt>
      <trkpt lat="44.15694" lon="5.33226">
        <ele>1570.45</ele>
        <time>2017-05-22T11:25:48Z</time>
      </trkpt>
      <trkpt lat="44.15689" lon="5.33249">
        <ele>1570.45</ele>
        <time>2017-05-22T11:26:07Z</time>
      </trkpt>
      <trkpt lat="44.15683" lon="5.33273">
        <ele>1569.97</ele>
        <time>2017-05-22T11:26:25Z</time>
      </trkpt>
      <trkpt lat="44.15675" lon="5.33293">
        <ele>1569.01</ele>
        <time>2017-05-22T11:26:44Z</time>
      </trkpt>
      <trkpt lat="44.15668" lon="5.3331">
        <ele>1567.57</ele>
        <time>2017-05-22T11:27:01Z</time>
      </trkpt>
      <trkpt lat="44.15663" lon="5.33334">
        <ele>1567.09</ele>
        <time>2017-05-22T11:27:21Z</time>
      </trkpt>
      <trkpt lat="44.15659" lon="5.33345">
        <ele>1566.12</ele>
        <time>2017-05-22T11:27:34Z</time>
      </trkpt>
      <trkpt lat="44.15661" lon="5.33374">
        <ele>1566.12</ele>
        <time>2017-05-22T11:27:52Z</time>
      </trkpt>
      <trkpt lat="44.15665" lon="5.33388">
        <ele>1567.09</ele>
        <time>2017-05-22T11:28:08Z</time>
      </trkpt>
      <trkpt lat="44.15666" lon="5.33389">
        <ele>1567.09</ele>
        <time>2017-05-22T11:28:09Z</time>
      </trkpt>
      <trkpt lat="44.15671" lon="5.33406">
        <ele>1568.05</ele>
        <time>2017-05-22T11:28:25Z</time>
      </trkpt>
      <trkpt lat="44.1567" lon="5.33424">
        <ele>1568.05</ele>
        <time>2017-05-22T11:28:41Z</time>
      </trkpt>
      <trkpt lat="44.15671" lon="5.3345">
        <ele>1568.05</ele>
        <time>2017-05-22T11:28:56Z</time>
      </trkpt>
      <trkpt lat="44.15669" lon="5.33467">
        <ele>1568.05</ele>
        <time>2017-05-22T11:29:13Z</time>
      </trkpt>
      <trkpt lat="44.15667" lon="5.33483">
        <ele>1566.61</ele>
        <time>2017-05-22T11:29:27Z</time>
      </trkpt>
      <trkpt lat="44.15661" lon="5.33503">
        <ele>1565.16</ele>
        <time>2017-05-22T11:29:44Z</time>
      </trkpt>
      <trkpt lat="44.15657" lon="5.33521">
        <ele>1564.2</ele>
        <time>2017-05-22T11:30:00Z</time>
      </trkpt>
      <trkpt lat="44.15656" lon="5.33541">
        <ele>1563.72</ele>
        <time>2017-05-22T11:30:14Z</time>
      </trkpt>
      <trkpt lat="44.15656" lon="5.33561">
        <ele>1564.68</ele>
        <time>2017-05-22T11:30:30Z</time>
      </trkpt>
      <trkpt lat="44.15655" lon="5.33587">
        <ele>1563.72</ele>
        <time>2017-05-22T11:30:48Z</time>
      </trkpt>
      <trkpt lat="44.15655" lon="5.33588">
        <ele>1563.72</ele>
        <time>2017-05-22T11:30:49Z</time>
      </trkpt>
      <trkpt lat="44.15652" lon="5.33608">
        <ele>1562.76</ele>
        <time>2017-05-22T11:31:05Z</time>
      </trkpt>
      <trkpt lat="44.15646" lon="5.33631">
        <ele>1559.88</ele>
        <time>2017-05-22T11:31:24Z</time>
      </trkpt>
      <trkpt lat="44.15641" lon="5.33649">
        <ele>1557.95</ele>
        <time>2017-05-22T11:31:41Z</time>
      </trkpt>
      <trkpt lat="44.15635" lon="5.33662">
        <ele>1555.55</ele>
        <time>2017-05-22T11:31:55Z</time>
      </trkpt>
      <trkpt lat="44.15628" lon="5.33679">
        <ele>1553.15</ele>
        <time>2017-05-22T11:32:12Z</time>
      </trkpt>
      <trkpt lat="44.1562" lon="5.33688">
        <ele>1550.74</ele>
        <time>2017-05-22T11:32:26Z</time>
      </trkpt>
      <trkpt lat="44.15614" lon="5.33692">
        <ele>1549.3</ele>
        <time>2017-05-22T11:32:38Z</time>
      </trkpt>
      <trkpt lat="44.15607" lon="5.33707">
        <ele>1546.42</ele>
        <time>2017-05-22T11:32:55Z</time>
      </trkpt>
      <trkpt lat="44.15599" lon="5.33716">
        <ele>1544.01</ele>
        <time>2017-05-22T11:33:11Z</time>
      </trkpt>
      <trkpt lat="44.15588" lon="5.33724">
        <ele>1541.13</ele>
        <time>2017-05-22T11:33:28Z</time>
      </trkpt>
      <trkpt lat="44.1558" lon="5.33731">
        <ele>1538.73</ele>
        <time>2017-05-22T11:33:42Z</time>
      </trkpt>
      <trkpt lat="44.1557" lon="5.33739">
        <ele>1536.32</ele>
        <time>2017-05-22T11:33:57Z</time>
      </trkpt>
      <trkpt lat="44.1556" lon="5.33746">
        <ele>1532.96</ele>
        <time>2017-05-22T11:34:14Z</time>
      </trkpt>
      <trkpt lat="44.15551" lon="5.33749">
        <ele>1531.52</ele>
        <time>2017-05-22T11:34:27Z</time>
      </trkpt>
      <trkpt lat="44.15543" lon="5.33758">
        <ele>1529.11</ele>
        <time>2017-05-22T11:34:43Z</time>
      </trkpt>
      <trkpt lat="44.15533" lon="5.33766">
        <ele>1526.23</ele>
        <time>2017-05-22T11:35:00Z</time>
      </trkpt>
      <trkpt lat="44.15525" lon="5.33778">
        <ele>1523.35</ele>
        <time>2017-05-22T11:35:18Z</time>
      </trkpt>
      <trkpt lat="44.15516" lon="5.33788">
        <ele>1520.94</ele>
        <time>2017-05-22T11:35:31Z</time>
      </trkpt>
      <trkpt lat="44.15506" lon="5.33795">
        <ele>1519.02</ele>
        <time>2017-05-22T11:35:46Z</time>
      </trkpt>
      <trkpt lat="44.15495" lon="5.33802">
        <ele>1516.62</ele>
        <time>2017-05-22T11:36:03Z</time>
      </trkpt>
      <trkpt lat="44.15484" lon="5.33805">
        <ele>1515.18</ele>
        <time>2017-05-22T11:36:17Z</time>
      </trkpt>
      <trkpt lat="44.15472" lon="5.33809">
        <ele>1513.25</ele>
        <time>2017-05-22T11:36:32Z</time>
      </trkpt>
      <trkpt lat="44.15459" lon="5.33815">
        <ele>1511.81</ele>
        <time>2017-05-22T11:36:48Z</time>
      </trkpt>
      <trkpt lat="44.15444" lon="5.33818">
        <ele>1510.85</ele>
        <time>2017-05-22T11:37:04Z</time>
      </trkpt>
      <trkpt lat="44.15432" lon="5.33825">
        <ele>1509.41</ele>
        <time>2017-05-22T11:37:19Z</time>
      </trkpt>
      <trkpt lat="44.15421" lon="5.33836">
        <ele>1506.52</ele>
        <time>2017-05-22T11:37:35Z</time>
      </trkpt>
      <trkpt lat="44.15414" lon="5.33848">
        <ele>1505.08</ele>
        <time>2017-05-22T11:37:49Z</time>
      </trkpt>
      <trkpt lat="44.15408" lon="5.3386">
        <ele>1502.68</ele>
        <time>2017-05-22T11:38:04Z</time>
      </trkpt>
      <trkpt lat="44.15401" lon="5.3387">
        <ele>1500.76</ele>
        <time>2017-05-22T11:38:19Z</time>
      </trkpt>
      <trkpt lat="44.15397" lon="5.33884">
        <ele>1498.35</ele>
        <time>2017-05-22T11:38:35Z</time>
      </trkpt>
      <trkpt lat="44.15402" lon="5.33892">
        <ele>1497.39</ele>
        <time>2017-05-22T11:38:48Z</time>
      </trkpt>
      <trkpt lat="44.15411" lon="5.33892">
        <ele>1496.91</ele>
        <time>2017-05-22T11:39:04Z</time>
      </trkpt>
      <trkpt lat="44.15413" lon="5.33892">
        <ele>1496.43</ele>
        <time>2017-05-22T11:39:09Z</time>
      </trkpt>
      <trkpt lat="44.15413" lon="5.33892">
        <ele>1496.91</ele>
        <time>2017-05-22T11:39:22Z</time>
      </trkpt>
      <trkpt lat="44.15413" lon="5.3389">
        <ele>1496.91</ele>
        <time>2017-05-22T11:39:44Z</time>
      </trkpt>
      <trkpt lat="44.15412" lon="5.339">
        <ele>1495.47</ele>
        <time>2017-05-22T11:40:05Z</time>
      </trkpt>
      <trkpt lat="44.15414" lon="5.33899">
        <ele>1499.79</ele>
        <time>2017-05-22T11:40:25Z</time>
      </trkpt>
      <trkpt lat="44.15414" lon="5.33899">
        <ele>1496.43</ele>
        <time>2017-05-22T11:40:26Z</time>
      </trkpt>
      <trkpt lat="44.15417" lon="5.33894">
        <ele>1496.43</ele>
        <time>2017-05-22T11:40:45Z</time>
      </trkpt>
      <trkpt lat="44.15419" lon="5.3389">
        <ele>1495.95</ele>
        <time>2017-05-22T11:41:12Z</time>
      </trkpt>
      <trkpt lat="44.1542" lon="5.33891">
        <ele>1495.47</ele>
        <time>2017-05-22T11:41:38Z</time>
      </trkpt>
      <trkpt lat="44.15422" lon="5.3389">
        <ele>1495.47</ele>
        <time>2017-05-22T11:42:08Z</time>
      </trkpt>
      <trkpt lat="44.15423" lon="5.33891">
        <ele>1495.47</ele>
        <time>2017-05-22T11:42:31Z</time>
      </trkpt>
      <trkpt lat="44.15428" lon="5.33893">
        <ele>1495.47</ele>
        <time>2017-05-22T11:42:47Z</time>
      </trkpt>
      <trkpt lat="44.15438" lon="5.33894">
        <ele>1494.51</ele>
        <time>2017-05-22T11:43:03Z</time>
      </trkpt>
      <trkpt lat="44.15449" lon="5.33895">
        <ele>1494.03</ele>
        <time>2017-05-22T11:43:19Z</time>
      </trkpt>
      <trkpt lat="44.15462" lon="5.33898">
        <ele>1493.55</ele>
        <time>2017-05-22T11:43:35Z</time>
      </trkpt>
      <trkpt lat="44.15465" lon="5.33906">
        <ele>1491.62</ele>
        <time>2017-05-22T11:43:50Z</time>
      </trkpt>
      <trkpt lat="44.15463" lon="5.3391">
        <ele>1489.7</ele>
        <time>2017-05-22T11:44:04Z</time>
      </trkpt>
      <trkpt lat="44.15462" lon="5.3392">
        <ele>1488.26</ele>
        <time>2017-05-22T11:44:19Z</time>
      </trkpt>
      <trkpt lat="44.15453" lon="5.33924">
        <ele>1487.3</ele>
        <time>2017-05-22T11:44:41Z</time>
      </trkpt>
      <trkpt lat="44.15436" lon="5.33929">
        <ele>1486.34</ele>
        <time>2017-05-22T11:45:00Z</time>
      </trkpt>
      <trkpt lat="44.15421" lon="5.33937">
        <ele>1485.37</ele>
        <time>2017-05-22T11:45:18Z</time>
      </trkpt>
      <trkpt lat="44.15407" lon="5.33945">
        <ele>1483.93</ele>
        <time>2017-05-22T11:45:36Z</time>
      </trkpt>
      <trkpt lat="44.15391" lon="5.33953">
        <ele>1482.49</ele>
        <time>2017-05-22T11:45:55Z</time>
      </trkpt>
      <trkpt lat="44.15374" lon="5.3396">
        <ele>1481.05</ele>
        <time>2017-05-22T11:46:14Z</time>
      </trkpt>
      <trkpt lat="44.15357" lon="5.3397">
        <ele>1479.61</ele>
        <time>2017-05-22T11:46:33Z</time>
      </trkpt>
      <trkpt lat="44.1534" lon="5.33977">
        <ele>1477.68</ele>
        <time>2017-05-22T11:46:51Z</time>
      </trkpt>
      <trkpt lat="44.15326" lon="5.33984">
        <ele>1475.76</ele>
        <time>2017-05-22T11:47:07Z</time>
      </trkpt>
      <trkpt lat="44.15318" lon="5.33987">
        <ele>1475.76</ele>
        <time>2017-05-22T11:47:16Z</time>
      </trkpt>
      <trkpt lat="44.15302" lon="5.33993">
        <ele>1473.84</ele>
        <time>2017-05-22T11:47:32Z</time>
      </trkpt>
      <trkpt lat="44.15288" lon="5.33996">
        <ele>1472.4</ele>
        <time>2017-05-22T11:47:48Z</time>
      </trkpt>
      <trkpt lat="44.15275" lon="5.34001">
        <ele>1470.95</ele>
        <time>2017-05-22T11:48:03Z</time>
      </trkpt>
      <trkpt lat="44.15261" lon="5.34006">
        <ele>1468.55</ele>
        <time>2017-05-22T11:48:18Z</time>
      </trkpt>
      <trkpt lat="44.15248" lon="5.3401">
        <ele>1466.63</ele>
        <time>2017-05-22T11:48:33Z</time>
      </trkpt>
      <trkpt lat="44.15229" lon="5.34015">
        <ele>1465.19</ele>
        <time>2017-05-22T11:48:51Z</time>
      </trkpt>
      <trkpt lat="44.15214" lon="5.34021">
        <ele>1462.78</ele>
        <time>2017-05-22T11:49:07Z</time>
      </trkpt>
      <trkpt lat="44.15201" lon="5.34023">
        <ele>1460.38</ele>
        <time>2017-05-22T11:49:23Z</time>
      </trkpt>
      <trkpt lat="44.15188" lon="5.34026">
        <ele>1458.94</ele>
        <time>2017-05-22T11:49:37Z</time>
      </trkpt>
      <trkpt lat="44.15174" lon="5.34028">
        <ele>1457.02</ele>
        <time>2017-05-22T11:49:52Z</time>
      </trkpt>
      <trkpt lat="44.1516" lon="5.34035">
        <ele>1455.09</ele>
        <time>2017-05-22T11:50:05Z</time>
      </trkpt>
      <trkpt lat="44.15145" lon="5.34036">
        <ele>1453.17</ele>
        <time>2017-05-22T11:50:21Z</time>
      </trkpt>
      <trkpt lat="44.15131" lon="5.34036">
        <ele>1451.73</ele>
        <time>2017-05-22T11:50:36Z</time>
      </trkpt>
      <trkpt lat="44.15044" lon="5.34018">
        <ele>1423.37</ele>
        <time>2017-05-22T11:55:07Z</time>
      </trkpt>
      <trkpt lat="44.15033" lon="5.34028">
        <ele>1422.41</ele>
        <time>2017-05-22T11:55:23Z</time>
      </trkpt>
      <trkpt lat="44.15027" lon="5.34026">
        <ele>1425.77</ele>
        <time>2017-05-22T11:55:32Z</time>
      </trkpt>
      <trkpt lat="44.15024" lon="5.34025">
        <ele>1430.1</ele>
        <time>2017-05-22T11:55:37Z</time>
      </trkpt>
      <trkpt lat="44.15023" lon="5.34025">
        <ele>1429.62</ele>
        <time>2017-05-22T11:55:38Z</time>
      </trkpt>
      <trkpt lat="44.1502" lon="5.34026">
        <ele>1431.54</ele>
        <time>2017-05-22T11:55:42Z</time>
      </trkpt>
      <trkpt lat="44.15012" lon="5.34024">
        <ele>1434.42</ele>
        <time>2017-05-22T11:55:52Z</time>
      </trkpt>
      <trkpt lat="44.15001" lon="5.34023">
        <ele>1435.87</ele>
        <time>2017-05-22T11:56:09Z</time>
      </trkpt>
      <trkpt lat="44.14991" lon="5.34026">
        <ele>1436.35</ele>
        <time>2017-05-22T11:56:22Z</time>
      </trkpt>
      <trkpt lat="44.14981" lon="5.34028">
        <ele>1434.42</ele>
        <time>2017-05-22T11:56:36Z</time>
      </trkpt>
      <trkpt lat="44.14969" lon="5.34032">
        <ele>1432.5</ele>
        <time>2017-05-22T11:56:51Z</time>
      </trkpt>
      <trkpt lat="44.14954" lon="5.3404">
        <ele>1430.1</ele>
        <time>2017-05-22T11:57:09Z</time>
      </trkpt>
      <trkpt lat="44.14941" lon="5.34046">
        <ele>1428.18</ele>
        <time>2017-05-22T11:57:24Z</time>
      </trkpt>
      <trkpt lat="44.1493" lon="5.34049">
        <ele>1425.77</ele>
        <time>2017-05-22T11:57:41Z</time>
      </trkpt>
      <trkpt lat="44.14923" lon="5.34051">
        <ele>1424.33</ele>
        <time>2017-05-22T11:57:49Z</time>
      </trkpt>
      <trkpt lat="44.1491" lon="5.3406">
        <ele>1422.41</ele>
        <time>2017-05-22T11:58:05Z</time>
      </trkpt>
      <trkpt lat="44.14898" lon="5.34068">
        <ele>1421.45</ele>
        <time>2017-05-22T11:58:19Z</time>
      </trkpt>
      <trkpt lat="44.14883" lon="5.34079">
        <ele>1420</ele>
        <time>2017-05-22T11:58:35Z</time>
      </trkpt>
      <trkpt lat="44.14867" lon="5.34086">
        <ele>1418.56</ele>
        <time>2017-05-22T11:58:49Z</time>
      </trkpt>
      <trkpt lat="44.1485" lon="5.34096">
        <ele>1417.6</ele>
        <time>2017-05-22T11:59:07Z</time>
      </trkpt>
      <trkpt lat="44.14836" lon="5.34103">
        <ele>1416.16</ele>
        <time>2017-05-22T11:59:23Z</time>
      </trkpt>
      <trkpt lat="44.14821" lon="5.34107">
        <ele>1415.2</ele>
        <time>2017-05-22T11:59:39Z</time>
      </trkpt>
      <trkpt lat="44.14815" lon="5.34104">
        <ele>1414.72</ele>
        <time>2017-05-22T11:59:58Z</time>
      </trkpt>
      <trkpt lat="44.14816" lon="5.341">
        <ele>1414.72</ele>
        <time>2017-05-22T12:00:23Z</time>
      </trkpt>
      <trkpt lat="44.14813" lon="5.34097">
        <ele>1414.72</ele>
        <time>2017-05-22T12:00:56Z</time>
      </trkpt>
      <trkpt lat="44.14812" lon="5.3411">
        <ele>1414.72</ele>
        <time>2017-05-22T12:01:20Z</time>
      </trkpt>
      <trkpt lat="44.14806" lon="5.34109">
        <ele>1414.24</ele>
        <time>2017-05-22T12:01:39Z</time>
      </trkpt>
      <trkpt lat="44.14793" lon="5.34113">
        <ele>1413.28</ele>
        <time>2017-05-22T12:01:56Z</time>
      </trkpt>
      <trkpt lat="44.14779" lon="5.34118">
        <ele>1412.31</ele>
        <time>2017-05-22T12:02:13Z</time>
      </trkpt>
      <trkpt lat="44.14762" lon="5.34123">
        <ele>1410.87</ele>
        <time>2017-05-22T12:02:30Z</time>
      </trkpt>
      <trkpt lat="44.14749" lon="5.34123">
        <ele>1409.91</ele>
        <time>2017-05-22T12:02:44Z</time>
      </trkpt>
      <trkpt lat="44.14728" lon="5.34123">
        <ele>1408.47</ele>
        <time>2017-05-22T12:03:04Z</time>
      </trkpt>
      <trkpt lat="44.14716" lon="5.34114">
        <ele>1407.03</ele>
        <time>2017-05-22T12:03:20Z</time>
      </trkpt>
      <trkpt lat="44.14702" lon="5.34101">
        <ele>1406.55</ele>
        <time>2017-05-22T12:03:37Z</time>
      </trkpt>
      <trkpt lat="44.14699" lon="5.34096">
        <ele>1406.07</ele>
        <time>2017-05-22T12:03:42Z</time>
      </trkpt>
      <trkpt lat="44.14688" lon="5.34084">
        <ele>1405.1</ele>
        <time>2017-05-22T12:03:57Z</time>
      </trkpt>
      <trkpt lat="44.14678" lon="5.34072">
        <ele>1403.66</ele>
        <time>2017-05-22T12:04:12Z</time>
      </trkpt>
      <trkpt lat="44.14668" lon="5.34058">
        <ele>1402.7</ele>
        <time>2017-05-22T12:04:28Z</time>
      </trkpt>
      <trkpt lat="44.14661" lon="5.34041">
        <ele>1401.74</ele>
        <time>2017-05-22T12:04:43Z</time>
      </trkpt>
      <trkpt lat="44.14656" lon="5.34024">
        <ele>1401.26</ele>
        <time>2017-05-22T12:04:58Z</time>
      </trkpt>
      <trkpt lat="44.14647" lon="5.34007">
        <ele>1398.86</ele>
        <time>2017-05-22T12:05:16Z</time>
      </trkpt>
      <trkpt lat="44.14634" lon="5.34003">
        <ele>1396.93</ele>
        <time>2017-05-22T12:05:35Z</time>
      </trkpt>
      <trkpt lat="44.14622" lon="5.34002">
        <ele>1394.05</ele>
        <time>2017-05-22T12:05:50Z</time>
      </trkpt>
      <trkpt lat="44.14613" lon="5.34003">
        <ele>1392.61</ele>
        <time>2017-05-22T12:06:04Z</time>
      </trkpt>
      <trkpt lat="44.14601" lon="5.34006">
        <ele>1390.68</ele>
        <time>2017-05-22T12:06:18Z</time>
      </trkpt>
      <trkpt lat="44.1459" lon="5.34012">
        <ele>1387.8</ele>
        <time>2017-05-22T12:06:34Z</time>
      </trkpt>
      <trkpt lat="44.14579" lon="5.34018">
        <ele>1385.88</ele>
        <time>2017-05-22T12:06:49Z</time>
      </trkpt>
      <trkpt lat="44.14567" lon="5.34021">
        <ele>1384.44</ele>
        <time>2017-05-22T12:07:03Z</time>
      </trkpt>
      <trkpt lat="44.14551" lon="5.34023">
        <ele>1382.51</ele>
        <time>2017-05-22T12:07:20Z</time>
      </trkpt>
      <trkpt lat="44.14537" lon="5.34029">
        <ele>1381.07</ele>
        <time>2017-05-22T12:07:34Z</time>
      </trkpt>
      <trkpt lat="44.14523" lon="5.34033">
        <ele>1380.11</ele>
        <time>2017-05-22T12:07:49Z</time>
      </trkpt>
      <trkpt lat="44.14505" lon="5.34041">
        <ele>1378.19</ele>
        <time>2017-05-22T12:08:09Z</time>
      </trkpt>
      <trkpt lat="44.14493" lon="5.34057">
        <ele>1377.23</ele>
        <time>2017-05-22T12:08:26Z</time>
      </trkpt>
      <trkpt lat="44.14484" lon="5.34078">
        <ele>1375.78</ele>
        <time>2017-05-22T12:08:43Z</time>
      </trkpt>
      <trkpt lat="44.14474" lon="5.34094">
        <ele>1374.82</ele>
        <time>2017-05-22T12:09:01Z</time>
      </trkpt>
      <trkpt lat="44.14463" lon="5.34109">
        <ele>1372.9</ele>
        <time>2017-05-22T12:09:18Z</time>
      </trkpt>
      <trkpt lat="44.14449" lon="5.34126">
        <ele>1370.02</ele>
        <time>2017-05-22T12:09:39Z</time>
      </trkpt>
      <trkpt lat="44.14436" lon="5.34144">
        <ele>1368.09</ele>
        <time>2017-05-22T12:09:59Z</time>
      </trkpt>
      <trkpt lat="44.14421" lon="5.34161">
        <ele>1365.21</ele>
        <time>2017-05-22T12:10:18Z</time>
      </trkpt>
      <trkpt lat="44.14404" lon="5.34176">
        <ele>1363.77</ele>
        <time>2017-05-22T12:10:37Z</time>
      </trkpt>
      <trkpt lat="44.14403" lon="5.34176">
        <ele>1363.29</ele>
        <time>2017-05-22T12:10:38Z</time>
      </trkpt>
      <trkpt lat="44.14382" lon="5.34191">
        <ele>1360.88</ele>
        <time>2017-05-22T12:10:57Z</time>
      </trkpt>
      <trkpt lat="44.14365" lon="5.34205">
        <ele>1358.96</ele>
        <time>2017-05-22T12:11:15Z</time>
      </trkpt>
      <trkpt lat="44.14349" lon="5.3421">
        <ele>1356.56</ele>
        <time>2017-05-22T12:11:31Z</time>
      </trkpt>
      <trkpt lat="44.14333" lon="5.34217">
        <ele>1354.63</ele>
        <time>2017-05-22T12:11:47Z</time>
      </trkpt>
      <trkpt lat="44.14317" lon="5.34219">
        <ele>1352.23</ele>
        <time>2017-05-22T12:12:04Z</time>
      </trkpt>
      <trkpt lat="44.14303" lon="5.3423">
        <ele>1350.79</ele>
        <time>2017-05-22T12:12:21Z</time>
      </trkpt>
      <trkpt lat="44.14292" lon="5.34241">
        <ele>1349.35</ele>
        <time>2017-05-22T12:12:36Z</time>
      </trkpt>
      <trkpt lat="44.14279" lon="5.34261">
        <ele>1347.91</ele>
        <time>2017-05-22T12:12:56Z</time>
      </trkpt>
      <trkpt lat="44.14265" lon="5.34279">
        <ele>1345.98</ele>
        <time>2017-05-22T12:13:16Z</time>
      </trkpt>
      <trkpt lat="44.14249" lon="5.34301">
        <ele>1344.54</ele>
        <time>2017-05-22T12:13:39Z</time>
      </trkpt>
      <trkpt lat="44.14235" lon="5.34318">
        <ele>1342.62</ele>
        <time>2017-05-22T12:13:59Z</time>
      </trkpt>
      <trkpt lat="44.14226" lon="5.34335">
        <ele>1341.18</ele>
        <time>2017-05-22T12:14:16Z</time>
      </trkpt>
      <trkpt lat="44.14218" lon="5.34349">
        <ele>1339.25</ele>
        <time>2017-05-22T12:14:32Z</time>
      </trkpt>
      <trkpt lat="44.14204" lon="5.34365">
        <ele>1337.33</ele>
        <time>2017-05-22T12:14:49Z</time>
      </trkpt>
      <trkpt lat="44.14189" lon="5.34367">
        <ele>1335.41</ele>
        <time>2017-05-22T12:15:05Z</time>
      </trkpt>
      <trkpt lat="44.14174" lon="5.34371">
        <ele>1333.49</ele>
        <time>2017-05-22T12:15:23Z</time>
      </trkpt>
      <trkpt lat="44.14159" lon="5.34378">
        <ele>1332.52</ele>
        <time>2017-05-22T12:15:41Z</time>
      </trkpt>
      <trkpt lat="44.14144" lon="5.3438">
        <ele>1331.08</ele>
        <time>2017-05-22T12:15:59Z</time>
      </trkpt>
      <trkpt lat="44.14134" lon="5.34383">
        <ele>1331.08</ele>
        <time>2017-05-22T12:16:17Z</time>
      </trkpt>
      <trkpt lat="44.14126" lon="5.344">
        <ele>1330.12</ele>
        <time>2017-05-22T12:16:36Z</time>
      </trkpt>
      <trkpt lat="44.14116" lon="5.34418">
        <ele>1330.6</ele>
        <time>2017-05-22T12:16:53Z</time>
      </trkpt>
      <trkpt lat="44.14104" lon="5.34438">
        <ele>1330.6</ele>
        <time>2017-05-22T12:17:12Z</time>
      </trkpt>
      <trkpt lat="44.14101" lon="5.34453">
        <ele>1330.6</ele>
        <time>2017-05-22T12:17:27Z</time>
      </trkpt>
      <trkpt lat="44.14098" lon="5.34453">
        <ele>1331.08</ele>
        <time>2017-05-22T12:17:44Z</time>
      </trkpt>
    </trkseg>
  </trk>
</gpx>